<?xml version="1.0" encoding="UTF-8" standalone="no" ?>
<gpx xmlns="http://www.topografix.com/GPX/1/1" xmlns:xsi="http://www.w3.org/2001/XMLSchema-instance" xsi:schemaLocation="http://www.topografix.com/GPX/1/1 http://www.topografix.com/GPX/1/1/gpx.xsd" version="1.1" creator="VisuGPX - https://www.visugpx.com">
  <metadata>
    <name>Cascades du Herisson</name>
    <desc><![CDATA[Rando effectuée le vendredi 27 mars 2015.]]></desc>
  </metadata>
  <trk>
    <name><![CDATA[Cascades du Hérisson 27 mars 2015]]></name>
    <cmt><![CDATA[27 mars 2015 08:58:02]]></cmt>
    <trkseg>
      <trkpt lat="46.6264" lon="5.8283">
        <ele>652</ele>
        <time>2015-03-27T07:58:03Z</time>
      </trkpt>
      <trkpt lat="46.62639" lon="5.82834">
        <ele>650</ele>
        <time>2015-03-27T07:59:02Z</time>
      </trkpt>
      <trkpt lat="46.62641" lon="5.82841">
        <ele>650</ele>
        <time>2015-03-27T07:59:11Z</time>
      </trkpt>
      <trkpt lat="46.62648" lon="5.82849">
        <ele>651</ele>
        <time>2015-03-27T07:59:23Z</time>
      </trkpt>
      <trkpt lat="46.62654" lon="5.82849">
        <ele>653</ele>
        <time>2015-03-27T08:00:55Z</time>
      </trkpt>
      <trkpt lat="46.62652" lon="5.82847">
        <ele>650</ele>
        <time>2015-03-27T08:02:45Z</time>
      </trkpt>
      <trkpt lat="46.62646" lon="5.82843">
        <ele>647</ele>
        <time>2015-03-27T08:03:21Z</time>
      </trkpt>
      <trkpt lat="46.62642" lon="5.82839">
        <ele>645</ele>
        <time>2015-03-27T08:03:26Z</time>
      </trkpt>
      <trkpt lat="46.62639" lon="5.82835">
        <ele>645</ele>
        <time>2015-03-27T08:03:31Z</time>
      </trkpt>
      <trkpt lat="46.62637" lon="5.8283">
        <ele>646</ele>
        <time>2015-03-27T08:04:06Z</time>
      </trkpt>
      <trkpt lat="46.62635" lon="5.82833">
        <ele>648</ele>
        <time>2015-03-27T08:04:51Z</time>
      </trkpt>
      <trkpt lat="46.62634" lon="5.82837">
        <ele>651</ele>
        <time>2015-03-27T08:05:20Z</time>
      </trkpt>
      <trkpt lat="46.62639" lon="5.82837">
        <ele>651</ele>
        <time>2015-03-27T08:05:26Z</time>
      </trkpt>
      <trkpt lat="46.6264" lon="5.82844">
        <ele>652</ele>
        <time>2015-03-27T08:05:38Z</time>
      </trkpt>
      <trkpt lat="46.62639" lon="5.82838">
        <ele>652</ele>
        <time>2015-03-27T08:07:06Z</time>
      </trkpt>
      <trkpt lat="46.62639" lon="5.82833">
        <ele>652</ele>
        <time>2015-03-27T08:07:31Z</time>
      </trkpt>
      <trkpt lat="46.62637" lon="5.82834">
        <ele>651</ele>
        <time>2015-03-27T08:07:46Z</time>
      </trkpt>
      <trkpt lat="46.6264" lon="5.8284">
        <ele>651</ele>
        <time>2015-03-27T08:07:53Z</time>
      </trkpt>
      <trkpt lat="46.62637" lon="5.82843">
        <ele>652</ele>
        <time>2015-03-27T08:08:42Z</time>
      </trkpt>
      <trkpt lat="46.62629" lon="5.82854">
        <ele>654</ele>
        <time>2015-03-27T08:09:10Z</time>
      </trkpt>
      <trkpt lat="46.62619" lon="5.82858">
        <ele>656</ele>
        <time>2015-03-27T08:09:21Z</time>
      </trkpt>
      <trkpt lat="46.62586" lon="5.82884">
        <ele>659</ele>
        <time>2015-03-27T08:09:56Z</time>
      </trkpt>
      <trkpt lat="46.62563" lon="5.82907">
        <ele>658</ele>
        <time>2015-03-27T08:10:20Z</time>
      </trkpt>
      <trkpt lat="46.62537" lon="5.82921">
        <ele>658</ele>
        <time>2015-03-27T08:10:42Z</time>
      </trkpt>
      <trkpt lat="46.62527" lon="5.82918">
        <ele>658</ele>
        <time>2015-03-27T08:10:53Z</time>
      </trkpt>
      <trkpt lat="46.62526" lon="5.8291">
        <ele>657</ele>
        <time>2015-03-27T08:10:57Z</time>
      </trkpt>
      <trkpt lat="46.62513" lon="5.82875">
        <ele>654</ele>
        <time>2015-03-27T08:11:16Z</time>
      </trkpt>
      <trkpt lat="46.62508" lon="5.82868">
        <ele>653</ele>
        <time>2015-03-27T08:11:21Z</time>
      </trkpt>
      <trkpt lat="46.62505" lon="5.82869">
        <ele>653</ele>
        <time>2015-03-27T08:11:23Z</time>
      </trkpt>
      <trkpt lat="46.62481" lon="5.82877">
        <ele>652</ele>
        <time>2015-03-27T08:11:47Z</time>
      </trkpt>
      <trkpt lat="46.62476" lon="5.82875">
        <ele>652</ele>
        <time>2015-03-27T08:11:51Z</time>
      </trkpt>
      <trkpt lat="46.62472" lon="5.82869">
        <ele>652</ele>
        <time>2015-03-27T08:11:54Z</time>
      </trkpt>
      <trkpt lat="46.62468" lon="5.82866">
        <ele>653</ele>
        <time>2015-03-27T08:11:57Z</time>
      </trkpt>
      <trkpt lat="46.62462" lon="5.82868">
        <ele>653</ele>
        <time>2015-03-27T08:12:01Z</time>
      </trkpt>
      <trkpt lat="46.62458" lon="5.8287">
        <ele>652</ele>
        <time>2015-03-27T08:12:06Z</time>
      </trkpt>
      <trkpt lat="46.62442" lon="5.82887">
        <ele>655</ele>
        <time>2015-03-27T08:12:25Z</time>
      </trkpt>
      <trkpt lat="46.62418" lon="5.82908">
        <ele>656</ele>
        <time>2015-03-27T08:12:49Z</time>
      </trkpt>
      <trkpt lat="46.62388" lon="5.82908">
        <ele>661</ele>
        <time>2015-03-27T08:13:17Z</time>
      </trkpt>
      <trkpt lat="46.62383" lon="5.82905">
        <ele>662</ele>
        <time>2015-03-27T08:13:21Z</time>
      </trkpt>
      <trkpt lat="46.62378" lon="5.829">
        <ele>662</ele>
        <time>2015-03-27T08:13:25Z</time>
      </trkpt>
      <trkpt lat="46.62374" lon="5.82895">
        <ele>662</ele>
        <time>2015-03-27T08:13:28Z</time>
      </trkpt>
      <trkpt lat="46.6237" lon="5.82892">
        <ele>663</ele>
        <time>2015-03-27T08:13:31Z</time>
      </trkpt>
      <trkpt lat="46.62349" lon="5.82888">
        <ele>667</ele>
        <time>2015-03-27T08:13:49Z</time>
      </trkpt>
      <trkpt lat="46.62343" lon="5.82888">
        <ele>666</ele>
        <time>2015-03-27T08:13:54Z</time>
      </trkpt>
      <trkpt lat="46.62337" lon="5.82884">
        <ele>667</ele>
        <time>2015-03-27T08:13:59Z</time>
      </trkpt>
      <trkpt lat="46.62333" lon="5.82884">
        <ele>667</ele>
        <time>2015-03-27T08:14:01Z</time>
      </trkpt>
      <trkpt lat="46.6231" lon="5.82898">
        <ele>669</ele>
        <time>2015-03-27T08:14:24Z</time>
      </trkpt>
      <trkpt lat="46.62305" lon="5.829">
        <ele>669</ele>
        <time>2015-03-27T08:14:29Z</time>
      </trkpt>
      <trkpt lat="46.623" lon="5.82901">
        <ele>669</ele>
        <time>2015-03-27T08:14:34Z</time>
      </trkpt>
      <trkpt lat="46.62286" lon="5.82913">
        <ele>668</ele>
        <time>2015-03-27T08:14:46Z</time>
      </trkpt>
      <trkpt lat="46.62268" lon="5.82922">
        <ele>669</ele>
        <time>2015-03-27T08:14:58Z</time>
      </trkpt>
      <trkpt lat="46.62259" lon="5.82926">
        <ele>669</ele>
        <time>2015-03-27T08:15:05Z</time>
      </trkpt>
      <trkpt lat="46.62256" lon="5.82932">
        <ele>669</ele>
        <time>2015-03-27T08:15:10Z</time>
      </trkpt>
      <trkpt lat="46.62234" lon="5.82951">
        <ele>668</ele>
        <time>2015-03-27T08:15:33Z</time>
      </trkpt>
      <trkpt lat="46.62227" lon="5.8296">
        <ele>668</ele>
        <time>2015-03-27T08:15:41Z</time>
      </trkpt>
      <trkpt lat="46.62218" lon="5.82961">
        <ele>670</ele>
        <time>2015-03-27T08:15:51Z</time>
      </trkpt>
      <trkpt lat="46.62211" lon="5.82951">
        <ele>670</ele>
        <time>2015-03-27T08:15:56Z</time>
      </trkpt>
      <trkpt lat="46.62203" lon="5.82943">
        <ele>671</ele>
        <time>2015-03-27T08:16:03Z</time>
      </trkpt>
      <trkpt lat="46.62178" lon="5.82915">
        <ele>673</ele>
        <time>2015-03-27T08:16:31Z</time>
      </trkpt>
      <trkpt lat="46.62173" lon="5.82917">
        <ele>673</ele>
        <time>2015-03-27T08:16:35Z</time>
      </trkpt>
      <trkpt lat="46.62169" lon="5.82921">
        <ele>672</ele>
        <time>2015-03-27T08:16:39Z</time>
      </trkpt>
      <trkpt lat="46.62166" lon="5.82925">
        <ele>672</ele>
        <time>2015-03-27T08:16:45Z</time>
      </trkpt>
      <trkpt lat="46.62161" lon="5.8293">
        <ele>671</ele>
        <time>2015-03-27T08:16:49Z</time>
      </trkpt>
      <trkpt lat="46.62153" lon="5.8294">
        <ele>672</ele>
        <time>2015-03-27T08:16:56Z</time>
      </trkpt>
      <trkpt lat="46.62139" lon="5.82961">
        <ele>673</ele>
        <time>2015-03-27T08:17:13Z</time>
      </trkpt>
      <trkpt lat="46.62132" lon="5.82957">
        <ele>673</ele>
        <time>2015-03-27T08:17:19Z</time>
      </trkpt>
      <trkpt lat="46.62126" lon="5.82958">
        <ele>674</ele>
        <time>2015-03-27T08:17:24Z</time>
      </trkpt>
      <trkpt lat="46.62117" lon="5.82956">
        <ele>673</ele>
        <time>2015-03-27T08:17:32Z</time>
      </trkpt>
      <trkpt lat="46.62072" lon="5.82966">
        <ele>676</ele>
        <time>2015-03-27T08:18:07Z</time>
      </trkpt>
      <trkpt lat="46.62055" lon="5.82977">
        <ele>678</ele>
        <time>2015-03-27T08:18:21Z</time>
      </trkpt>
      <trkpt lat="46.62045" lon="5.82977">
        <ele>677</ele>
        <time>2015-03-27T08:18:31Z</time>
      </trkpt>
      <trkpt lat="46.62036" lon="5.82973">
        <ele>675</ele>
        <time>2015-03-27T08:18:42Z</time>
      </trkpt>
      <trkpt lat="46.62027" lon="5.82976">
        <ele>674</ele>
        <time>2015-03-27T08:18:51Z</time>
      </trkpt>
      <trkpt lat="46.62006" lon="5.82973">
        <ele>673</ele>
        <time>2015-03-27T08:19:04Z</time>
      </trkpt>
      <trkpt lat="46.61989" lon="5.8298">
        <ele>672</ele>
        <time>2015-03-27T08:19:21Z</time>
      </trkpt>
      <trkpt lat="46.61983" lon="5.8299">
        <ele>671</ele>
        <time>2015-03-27T08:19:36Z</time>
      </trkpt>
      <trkpt lat="46.61983" lon="5.83004">
        <ele>672</ele>
        <time>2015-03-27T08:19:47Z</time>
      </trkpt>
      <trkpt lat="46.61972" lon="5.83009">
        <ele>674</ele>
        <time>2015-03-27T08:20:01Z</time>
      </trkpt>
      <trkpt lat="46.61962" lon="5.83006">
        <ele>677</ele>
        <time>2015-03-27T08:20:12Z</time>
      </trkpt>
      <trkpt lat="46.61953" lon="5.83008">
        <ele>677</ele>
        <time>2015-03-27T08:20:18Z</time>
      </trkpt>
      <trkpt lat="46.61944" lon="5.83009">
        <ele>677</ele>
        <time>2015-03-27T08:20:25Z</time>
      </trkpt>
      <trkpt lat="46.61936" lon="5.83016">
        <ele>677</ele>
        <time>2015-03-27T08:20:35Z</time>
      </trkpt>
      <trkpt lat="46.61928" lon="5.83023">
        <ele>677</ele>
        <time>2015-03-27T08:20:44Z</time>
      </trkpt>
      <trkpt lat="46.61909" lon="5.83033">
        <ele>677</ele>
        <time>2015-03-27T08:21:02Z</time>
      </trkpt>
      <trkpt lat="46.61873" lon="5.83059">
        <ele>673</ele>
        <time>2015-03-27T08:21:36Z</time>
      </trkpt>
      <trkpt lat="46.61865" lon="5.83066">
        <ele>672</ele>
        <time>2015-03-27T08:21:43Z</time>
      </trkpt>
      <trkpt lat="46.61855" lon="5.83088">
        <ele>671</ele>
        <time>2015-03-27T08:21:59Z</time>
      </trkpt>
      <trkpt lat="46.61849" lon="5.83099">
        <ele>671</ele>
        <time>2015-03-27T08:22:07Z</time>
      </trkpt>
      <trkpt lat="46.61836" lon="5.83135">
        <ele>669</ele>
        <time>2015-03-27T08:22:33Z</time>
      </trkpt>
      <trkpt lat="46.61827" lon="5.8316">
        <ele>670</ele>
        <time>2015-03-27T08:22:50Z</time>
      </trkpt>
      <trkpt lat="46.61822" lon="5.83172">
        <ele>670</ele>
        <time>2015-03-27T08:22:57Z</time>
      </trkpt>
      <trkpt lat="46.61816" lon="5.83183">
        <ele>670</ele>
        <time>2015-03-27T08:23:03Z</time>
      </trkpt>
      <trkpt lat="46.61796" lon="5.8323">
        <ele>667</ele>
        <time>2015-03-27T08:23:36Z</time>
      </trkpt>
      <trkpt lat="46.61786" lon="5.83254">
        <ele>665</ele>
        <time>2015-03-27T08:23:56Z</time>
      </trkpt>
      <trkpt lat="46.61783" lon="5.83268">
        <ele>665</ele>
        <time>2015-03-27T08:24:05Z</time>
      </trkpt>
      <trkpt lat="46.61774" lon="5.83292">
        <ele>663</ele>
        <time>2015-03-27T08:24:22Z</time>
      </trkpt>
      <trkpt lat="46.61752" lon="5.83339">
        <ele>654</ele>
        <time>2015-03-27T08:24:54Z</time>
      </trkpt>
      <trkpt lat="46.61751" lon="5.83346">
        <ele>654</ele>
        <time>2015-03-27T08:24:58Z</time>
      </trkpt>
      <trkpt lat="46.61748" lon="5.8336">
        <ele>654</ele>
        <time>2015-03-27T08:25:05Z</time>
      </trkpt>
      <trkpt lat="46.61741" lon="5.83379">
        <ele>653</ele>
        <time>2015-03-27T08:25:20Z</time>
      </trkpt>
      <trkpt lat="46.61737" lon="5.83383">
        <ele>652</ele>
        <time>2015-03-27T08:25:26Z</time>
      </trkpt>
      <trkpt lat="46.61726" lon="5.83415">
        <ele>645</ele>
        <time>2015-03-27T08:25:52Z</time>
      </trkpt>
      <trkpt lat="46.61719" lon="5.83425">
        <ele>645</ele>
        <time>2015-03-27T08:26:01Z</time>
      </trkpt>
      <trkpt lat="46.61712" lon="5.83451">
        <ele>643</ele>
        <time>2015-03-27T08:26:16Z</time>
      </trkpt>
      <trkpt lat="46.617" lon="5.83473">
        <ele>639</ele>
        <time>2015-03-27T08:26:31Z</time>
      </trkpt>
      <trkpt lat="46.61693" lon="5.83498">
        <ele>638</ele>
        <time>2015-03-27T08:26:47Z</time>
      </trkpt>
      <trkpt lat="46.61693" lon="5.83526">
        <ele>637</ele>
        <time>2015-03-27T08:27:06Z</time>
      </trkpt>
      <trkpt lat="46.61703" lon="5.83565">
        <ele>635</ele>
        <time>2015-03-27T08:27:27Z</time>
      </trkpt>
      <trkpt lat="46.61701" lon="5.83579">
        <ele>635</ele>
        <time>2015-03-27T08:27:36Z</time>
      </trkpt>
      <trkpt lat="46.61697" lon="5.83593">
        <ele>636</ele>
        <time>2015-03-27T08:27:43Z</time>
      </trkpt>
      <trkpt lat="46.61694" lon="5.83607">
        <ele>636</ele>
        <time>2015-03-27T08:27:50Z</time>
      </trkpt>
      <trkpt lat="46.61694" lon="5.83622">
        <ele>635</ele>
        <time>2015-03-27T08:27:58Z</time>
      </trkpt>
      <trkpt lat="46.61678" lon="5.83671">
        <ele>629</ele>
        <time>2015-03-27T08:28:31Z</time>
      </trkpt>
      <trkpt lat="46.61676" lon="5.837">
        <ele>625</ele>
        <time>2015-03-27T08:28:49Z</time>
      </trkpt>
      <trkpt lat="46.61672" lon="5.83726">
        <ele>624</ele>
        <time>2015-03-27T08:29:05Z</time>
      </trkpt>
      <trkpt lat="46.61672" lon="5.83768">
        <ele>620</ele>
        <time>2015-03-27T08:29:30Z</time>
      </trkpt>
      <trkpt lat="46.61671" lon="5.83824">
        <ele>619</ele>
        <time>2015-03-27T08:30:06Z</time>
      </trkpt>
      <trkpt lat="46.61664" lon="5.83865">
        <ele>618</ele>
        <time>2015-03-27T08:30:35Z</time>
      </trkpt>
      <trkpt lat="46.61659" lon="5.83892">
        <ele>616</ele>
        <time>2015-03-27T08:30:53Z</time>
      </trkpt>
      <trkpt lat="46.61654" lon="5.8392">
        <ele>616</ele>
        <time>2015-03-27T08:31:06Z</time>
      </trkpt>
      <trkpt lat="46.61652" lon="5.83934">
        <ele>615</ele>
        <time>2015-03-27T08:31:16Z</time>
      </trkpt>
      <trkpt lat="46.61652" lon="5.83947">
        <ele>615</ele>
        <time>2015-03-27T08:31:26Z</time>
      </trkpt>
      <trkpt lat="46.61654" lon="5.84003">
        <ele>612</ele>
        <time>2015-03-27T08:31:58Z</time>
      </trkpt>
      <trkpt lat="46.61653" lon="5.84072">
        <ele>611</ele>
        <time>2015-03-27T08:32:35Z</time>
      </trkpt>
      <trkpt lat="46.61651" lon="5.84099">
        <ele>612</ele>
        <time>2015-03-27T08:32:53Z</time>
      </trkpt>
      <trkpt lat="46.61649" lon="5.84153">
        <ele>608</ele>
        <time>2015-03-27T08:33:27Z</time>
      </trkpt>
      <trkpt lat="46.61651" lon="5.84206">
        <ele>604</ele>
        <time>2015-03-27T08:33:58Z</time>
      </trkpt>
      <trkpt lat="46.6165" lon="5.8425">
        <ele>600</ele>
        <time>2015-03-27T08:34:20Z</time>
      </trkpt>
      <trkpt lat="46.61654" lon="5.84262">
        <ele>600</ele>
        <time>2015-03-27T08:34:31Z</time>
      </trkpt>
      <trkpt lat="46.61651" lon="5.84276">
        <ele>600</ele>
        <time>2015-03-27T08:34:39Z</time>
      </trkpt>
      <trkpt lat="46.61645" lon="5.84303">
        <ele>595</ele>
        <time>2015-03-27T08:35:00Z</time>
      </trkpt>
      <trkpt lat="46.61645" lon="5.84369">
        <ele>588</ele>
        <time>2015-03-27T08:35:43Z</time>
      </trkpt>
      <trkpt lat="46.61642" lon="5.84397">
        <ele>585</ele>
        <time>2015-03-27T08:35:58Z</time>
      </trkpt>
      <trkpt lat="46.61636" lon="5.84424">
        <ele>585</ele>
        <time>2015-03-27T08:36:15Z</time>
      </trkpt>
      <trkpt lat="46.61626" lon="5.84478">
        <ele>579</ele>
        <time>2015-03-27T08:36:47Z</time>
      </trkpt>
      <trkpt lat="46.61623" lon="5.84492">
        <ele>577</ele>
        <time>2015-03-27T08:36:59Z</time>
      </trkpt>
      <trkpt lat="46.61614" lon="5.84517">
        <ele>575</ele>
        <time>2015-03-27T08:37:14Z</time>
      </trkpt>
      <trkpt lat="46.61605" lon="5.84556">
        <ele>576</ele>
        <time>2015-03-27T08:37:39Z</time>
      </trkpt>
      <trkpt lat="46.61599" lon="5.84566">
        <ele>575</ele>
        <time>2015-03-27T08:37:48Z</time>
      </trkpt>
      <trkpt lat="46.61582" lon="5.84601">
        <ele>570</ele>
        <time>2015-03-27T08:38:18Z</time>
      </trkpt>
      <trkpt lat="46.61564" lon="5.84651">
        <ele>564</ele>
        <time>2015-03-27T08:38:54Z</time>
      </trkpt>
      <trkpt lat="46.61555" lon="5.84677">
        <ele>561</ele>
        <time>2015-03-27T08:39:07Z</time>
      </trkpt>
      <trkpt lat="46.61546" lon="5.84684">
        <ele>559</ele>
        <time>2015-03-27T08:39:16Z</time>
      </trkpt>
      <trkpt lat="46.61521" lon="5.84724">
        <ele>556</ele>
        <time>2015-03-27T08:39:49Z</time>
      </trkpt>
      <trkpt lat="46.61504" lon="5.8476">
        <ele>547</ele>
        <time>2015-03-27T08:40:21Z</time>
      </trkpt>
      <trkpt lat="46.6147" lon="5.84808">
        <ele>537</ele>
        <time>2015-03-27T08:40:58Z</time>
      </trkpt>
      <trkpt lat="46.61438" lon="5.84836">
        <ele>533</ele>
        <time>2015-03-27T08:41:29Z</time>
      </trkpt>
      <trkpt lat="46.61405" lon="5.84886">
        <ele>529</ele>
        <time>2015-03-27T08:42:07Z</time>
      </trkpt>
      <trkpt lat="46.61395" lon="5.8491">
        <ele>529</ele>
        <time>2015-03-27T08:42:23Z</time>
      </trkpt>
      <trkpt lat="46.61388" lon="5.84919">
        <ele>528</ele>
        <time>2015-03-27T08:42:31Z</time>
      </trkpt>
      <trkpt lat="46.6136" lon="5.84927">
        <ele>525</ele>
        <time>2015-03-27T08:42:52Z</time>
      </trkpt>
      <trkpt lat="46.61352" lon="5.84936">
        <ele>525</ele>
        <time>2015-03-27T08:43:00Z</time>
      </trkpt>
      <trkpt lat="46.61346" lon="5.84947">
        <ele>525</ele>
        <time>2015-03-27T08:43:09Z</time>
      </trkpt>
      <trkpt lat="46.61345" lon="5.84962">
        <ele>523</ele>
        <time>2015-03-27T08:43:18Z</time>
      </trkpt>
      <trkpt lat="46.61339" lon="5.85016">
        <ele>520</ele>
        <time>2015-03-27T08:43:50Z</time>
      </trkpt>
      <trkpt lat="46.61331" lon="5.8504">
        <ele>518</ele>
        <time>2015-03-27T08:44:01Z</time>
      </trkpt>
      <trkpt lat="46.61336" lon="5.85063">
        <ele>516</ele>
        <time>2015-03-27T08:44:51Z</time>
      </trkpt>
      <trkpt lat="46.61341" lon="5.85074">
        <ele>516</ele>
        <time>2015-03-27T08:44:59Z</time>
      </trkpt>
      <trkpt lat="46.61334" lon="5.85077">
        <ele>518</ele>
        <time>2015-03-27T08:45:26Z</time>
      </trkpt>
      <trkpt lat="46.61335" lon="5.8506">
        <ele>519</ele>
        <time>2015-03-27T08:45:47Z</time>
      </trkpt>
      <trkpt lat="46.61332" lon="5.85047">
        <ele>519</ele>
        <time>2015-03-27T08:45:55Z</time>
      </trkpt>
      <trkpt lat="46.61327" lon="5.85048">
        <ele>517</ele>
        <time>2015-03-27T08:47:31Z</time>
      </trkpt>
      <trkpt lat="46.61327" lon="5.85056">
        <ele>517</ele>
        <time>2015-03-27T08:48:10Z</time>
      </trkpt>
      <trkpt lat="46.61322" lon="5.85052">
        <ele>511</ele>
        <time>2015-03-27T08:48:56Z</time>
      </trkpt>
      <trkpt lat="46.61321" lon="5.85055">
        <ele>511</ele>
        <time>2015-03-27T08:50:03Z</time>
      </trkpt>
      <trkpt lat="46.61317" lon="5.85061">
        <ele>510</ele>
        <time>2015-03-27T08:50:08Z</time>
      </trkpt>
      <trkpt lat="46.61316" lon="5.85068">
        <ele>510</ele>
        <time>2015-03-27T08:50:13Z</time>
      </trkpt>
      <trkpt lat="46.61317" lon="5.85074">
        <ele>511</ele>
        <time>2015-03-27T08:50:22Z</time>
      </trkpt>
      <trkpt lat="46.61316" lon="5.85081">
        <ele>512</ele>
        <time>2015-03-27T08:50:30Z</time>
      </trkpt>
      <trkpt lat="46.61323" lon="5.85089">
        <ele>514</ele>
        <time>2015-03-27T08:51:33Z</time>
      </trkpt>
      <trkpt lat="46.61323" lon="5.85103">
        <ele>515</ele>
        <time>2015-03-27T08:51:42Z</time>
      </trkpt>
      <trkpt lat="46.61322" lon="5.85117">
        <ele>519</ele>
        <time>2015-03-27T08:51:51Z</time>
      </trkpt>
      <trkpt lat="46.6132" lon="5.85131">
        <ele>519</ele>
        <time>2015-03-27T08:51:58Z</time>
      </trkpt>
      <trkpt lat="46.61326" lon="5.85143">
        <ele>520</ele>
        <time>2015-03-27T08:52:07Z</time>
      </trkpt>
      <trkpt lat="46.61346" lon="5.85173">
        <ele>526</ele>
        <time>2015-03-27T08:52:28Z</time>
      </trkpt>
      <trkpt lat="46.61361" lon="5.85225">
        <ele>534</ele>
        <time>2015-03-27T08:53:02Z</time>
      </trkpt>
      <trkpt lat="46.61364" lon="5.85238">
        <ele>536</ele>
        <time>2015-03-27T08:53:09Z</time>
      </trkpt>
      <trkpt lat="46.61367" lon="5.85244">
        <ele>535</ele>
        <time>2015-03-27T08:54:06Z</time>
      </trkpt>
      <trkpt lat="46.61373" lon="5.85256">
        <ele>537</ele>
        <time>2015-03-27T08:54:19Z</time>
      </trkpt>
      <trkpt lat="46.61373" lon="5.85283">
        <ele>545</ele>
        <time>2015-03-27T08:54:34Z</time>
      </trkpt>
      <trkpt lat="46.6138" lon="5.85293">
        <ele>547</ele>
        <time>2015-03-27T08:54:48Z</time>
      </trkpt>
      <trkpt lat="46.61386" lon="5.85333">
        <ele>551</ele>
        <time>2015-03-27T08:55:26Z</time>
      </trkpt>
      <trkpt lat="46.61386" lon="5.85346">
        <ele>551</ele>
        <time>2015-03-27T08:55:35Z</time>
      </trkpt>
      <trkpt lat="46.61391" lon="5.85347">
        <ele>551</ele>
        <time>2015-03-27T08:56:18Z</time>
      </trkpt>
      <trkpt lat="46.61388" lon="5.85349">
        <ele>551</ele>
        <time>2015-03-27T08:57:41Z</time>
      </trkpt>
      <trkpt lat="46.61383" lon="5.85363">
        <ele>551</ele>
        <time>2015-03-27T08:57:49Z</time>
      </trkpt>
      <trkpt lat="46.61391" lon="5.8537">
        <ele>551</ele>
        <time>2015-03-27T08:58:03Z</time>
      </trkpt>
      <trkpt lat="46.61393" lon="5.85384">
        <ele>554</ele>
        <time>2015-03-27T08:58:12Z</time>
      </trkpt>
      <trkpt lat="46.61398" lon="5.85397">
        <ele>554</ele>
        <time>2015-03-27T08:58:28Z</time>
      </trkpt>
      <trkpt lat="46.61397" lon="5.85411">
        <ele>553</ele>
        <time>2015-03-27T08:58:40Z</time>
      </trkpt>
      <trkpt lat="46.61395" lon="5.85425">
        <ele>553</ele>
        <time>2015-03-27T08:58:57Z</time>
      </trkpt>
      <trkpt lat="46.61393" lon="5.85431">
        <ele>555</ele>
        <time>2015-03-27T08:59:12Z</time>
      </trkpt>
      <trkpt lat="46.61397" lon="5.85452">
        <ele>557</ele>
        <time>2015-03-27T08:59:37Z</time>
      </trkpt>
      <trkpt lat="46.61403" lon="5.85469">
        <ele>558</ele>
        <time>2015-03-27T08:59:57Z</time>
      </trkpt>
      <trkpt lat="46.61411" lon="5.85465">
        <ele>556</ele>
        <time>2015-03-27T09:00:13Z</time>
      </trkpt>
      <trkpt lat="46.61404" lon="5.85463">
        <ele>557</ele>
        <time>2015-03-27T09:01:09Z</time>
      </trkpt>
      <trkpt lat="46.61403" lon="5.8545">
        <ele>558</ele>
        <time>2015-03-27T09:01:18Z</time>
      </trkpt>
      <trkpt lat="46.61402" lon="5.85437">
        <ele>557</ele>
        <time>2015-03-27T09:01:28Z</time>
      </trkpt>
      <trkpt lat="46.61399" lon="5.85437">
        <ele>553</ele>
        <time>2015-03-27T09:02:18Z</time>
      </trkpt>
      <trkpt lat="46.614" lon="5.85452">
        <ele>552</ele>
        <time>2015-03-27T09:02:26Z</time>
      </trkpt>
      <trkpt lat="46.61409" lon="5.8545">
        <ele>549</ele>
        <time>2015-03-27T09:02:45Z</time>
      </trkpt>
      <trkpt lat="46.61415" lon="5.85439">
        <ele>550</ele>
        <time>2015-03-27T09:02:54Z</time>
      </trkpt>
      <trkpt lat="46.6142" lon="5.85428">
        <ele>553</ele>
        <time>2015-03-27T09:03:03Z</time>
      </trkpt>
      <trkpt lat="46.61429" lon="5.85422">
        <ele>555</ele>
        <time>2015-03-27T09:03:18Z</time>
      </trkpt>
      <trkpt lat="46.61435" lon="5.85408">
        <ele>560</ele>
        <time>2015-03-27T09:03:40Z</time>
      </trkpt>
      <trkpt lat="46.61454" lon="5.85398">
        <ele>563</ele>
        <time>2015-03-27T09:04:12Z</time>
      </trkpt>
      <trkpt lat="46.6146" lon="5.85404">
        <ele>563</ele>
        <time>2015-03-27T09:04:43Z</time>
      </trkpt>
      <trkpt lat="46.61449" lon="5.85427">
        <ele>566</ele>
        <time>2015-03-27T09:05:03Z</time>
      </trkpt>
      <trkpt lat="46.61447" lon="5.8544">
        <ele>567</ele>
        <time>2015-03-27T09:05:15Z</time>
      </trkpt>
      <trkpt lat="46.61444" lon="5.85454">
        <ele>566</ele>
        <time>2015-03-27T09:05:26Z</time>
      </trkpt>
      <trkpt lat="46.61439" lon="5.85465">
        <ele>567</ele>
        <time>2015-03-27T09:05:36Z</time>
      </trkpt>
      <trkpt lat="46.61437" lon="5.85494">
        <ele>574</ele>
        <time>2015-03-27T09:06:06Z</time>
      </trkpt>
      <trkpt lat="46.61438" lon="5.85507">
        <ele>576</ele>
        <time>2015-03-27T09:06:18Z</time>
      </trkpt>
      <trkpt lat="46.6143" lon="5.85531">
        <ele>580</ele>
        <time>2015-03-27T09:06:40Z</time>
      </trkpt>
      <trkpt lat="46.61423" lon="5.8554">
        <ele>580</ele>
        <time>2015-03-27T09:06:55Z</time>
      </trkpt>
      <trkpt lat="46.61404" lon="5.85539">
        <ele>583</ele>
        <time>2015-03-27T09:07:27Z</time>
      </trkpt>
      <trkpt lat="46.61398" lon="5.8553">
        <ele>584</ele>
        <time>2015-03-27T09:07:40Z</time>
      </trkpt>
      <trkpt lat="46.61399" lon="5.85535">
        <ele>590</ele>
        <time>2015-03-27T09:08:42Z</time>
      </trkpt>
      <trkpt lat="46.61399" lon="5.85542">
        <ele>590</ele>
        <time>2015-03-27T09:08:47Z</time>
      </trkpt>
      <trkpt lat="46.61403" lon="5.85562">
        <ele>592</ele>
        <time>2015-03-27T09:09:01Z</time>
      </trkpt>
      <trkpt lat="46.61396" lon="5.85583">
        <ele>594</ele>
        <time>2015-03-27T09:09:13Z</time>
      </trkpt>
      <trkpt lat="46.61394" lon="5.85597">
        <ele>594</ele>
        <time>2015-03-27T09:09:25Z</time>
      </trkpt>
      <trkpt lat="46.61394" lon="5.85601">
        <ele>598</ele>
        <time>2015-03-27T09:10:31Z</time>
      </trkpt>
      <trkpt lat="46.61401" lon="5.85611">
        <ele>599</ele>
        <time>2015-03-27T09:10:49Z</time>
      </trkpt>
      <trkpt lat="46.6141" lon="5.85615">
        <ele>600</ele>
        <time>2015-03-27T09:11:02Z</time>
      </trkpt>
      <trkpt lat="46.6141" lon="5.85629">
        <ele>602</ele>
        <time>2015-03-27T09:11:12Z</time>
      </trkpt>
      <trkpt lat="46.61407" lon="5.85642">
        <ele>605</ele>
        <time>2015-03-27T09:11:22Z</time>
      </trkpt>
      <trkpt lat="46.61402" lon="5.8565">
        <ele>607</ele>
        <time>2015-03-27T09:11:39Z</time>
      </trkpt>
      <trkpt lat="46.61393" lon="5.85675">
        <ele>611</ele>
        <time>2015-03-27T09:12:15Z</time>
      </trkpt>
      <trkpt lat="46.61387" lon="5.85685">
        <ele>611</ele>
        <time>2015-03-27T09:12:25Z</time>
      </trkpt>
      <trkpt lat="46.61382" lon="5.85689">
        <ele>611</ele>
        <time>2015-03-27T09:12:44Z</time>
      </trkpt>
      <trkpt lat="46.61381" lon="5.857">
        <ele>613</ele>
        <time>2015-03-27T09:13:04Z</time>
      </trkpt>
      <trkpt lat="46.61374" lon="5.8573">
        <ele>623</ele>
        <time>2015-03-27T09:13:43Z</time>
      </trkpt>
      <trkpt lat="46.61371" lon="5.85763">
        <ele>631</ele>
        <time>2015-03-27T09:14:23Z</time>
      </trkpt>
      <trkpt lat="46.6138" lon="5.85793">
        <ele>641</ele>
        <time>2015-03-27T09:15:00Z</time>
      </trkpt>
      <trkpt lat="46.61377" lon="5.85806">
        <ele>643</ele>
        <time>2015-03-27T09:15:19Z</time>
      </trkpt>
      <trkpt lat="46.61378" lon="5.8582">
        <ele>645</ele>
        <time>2015-03-27T09:15:33Z</time>
      </trkpt>
      <trkpt lat="46.61381" lon="5.85829">
        <ele>645</ele>
        <time>2015-03-27T09:15:49Z</time>
      </trkpt>
      <trkpt lat="46.61373" lon="5.85842">
        <ele>647</ele>
        <time>2015-03-27T09:16:29Z</time>
      </trkpt>
      <trkpt lat="46.61366" lon="5.85853">
        <ele>647</ele>
        <time>2015-03-27T09:16:39Z</time>
      </trkpt>
      <trkpt lat="46.61367" lon="5.85866">
        <ele>644</ele>
        <time>2015-03-27T09:16:56Z</time>
      </trkpt>
      <trkpt lat="46.61371" lon="5.85883">
        <ele>644</ele>
        <time>2015-03-27T09:17:16Z</time>
      </trkpt>
      <trkpt lat="46.61382" lon="5.85887">
        <ele>646</ele>
        <time>2015-03-27T09:17:30Z</time>
      </trkpt>
      <trkpt lat="46.61406" lon="5.85903">
        <ele>657</ele>
        <time>2015-03-27T09:18:10Z</time>
      </trkpt>
      <trkpt lat="46.61414" lon="5.85911">
        <ele>658</ele>
        <time>2015-03-27T09:18:18Z</time>
      </trkpt>
      <trkpt lat="46.61422" lon="5.85913">
        <ele>662</ele>
        <time>2015-03-27T09:19:01Z</time>
      </trkpt>
      <trkpt lat="46.6142" lon="5.85925">
        <ele>661</ele>
        <time>2015-03-27T09:19:41Z</time>
      </trkpt>
      <trkpt lat="46.6142" lon="5.85916">
        <ele>663</ele>
        <time>2015-03-27T09:21:18Z</time>
      </trkpt>
      <trkpt lat="46.61413" lon="5.85914">
        <ele>663</ele>
        <time>2015-03-27T09:21:57Z</time>
      </trkpt>
      <trkpt lat="46.61419" lon="5.85912">
        <ele>659</ele>
        <time>2015-03-27T09:23:42Z</time>
      </trkpt>
      <trkpt lat="46.61414" lon="5.85899">
        <ele>660</ele>
        <time>2015-03-27T09:23:52Z</time>
      </trkpt>
      <trkpt lat="46.61407" lon="5.8589">
        <ele>660</ele>
        <time>2015-03-27T09:24:01Z</time>
      </trkpt>
      <trkpt lat="46.61399" lon="5.85884">
        <ele>662</ele>
        <time>2015-03-27T09:24:08Z</time>
      </trkpt>
      <trkpt lat="46.6139" lon="5.85886">
        <ele>661</ele>
        <time>2015-03-27T09:24:31Z</time>
      </trkpt>
      <trkpt lat="46.6139" lon="5.85873">
        <ele>663</ele>
        <time>2015-03-27T09:24:48Z</time>
      </trkpt>
      <trkpt lat="46.61383" lon="5.85864">
        <ele>666</ele>
        <time>2015-03-27T09:24:59Z</time>
      </trkpt>
      <trkpt lat="46.61373" lon="5.85863">
        <ele>665</ele>
        <time>2015-03-27T09:25:11Z</time>
      </trkpt>
      <trkpt lat="46.61368" lon="5.85875">
        <ele>664</ele>
        <time>2015-03-27T09:25:21Z</time>
      </trkpt>
      <trkpt lat="46.61374" lon="5.85886">
        <ele>664</ele>
        <time>2015-03-27T09:25:39Z</time>
      </trkpt>
      <trkpt lat="46.61382" lon="5.85894">
        <ele>663</ele>
        <time>2015-03-27T09:25:47Z</time>
      </trkpt>
      <trkpt lat="46.61396" lon="5.85933">
        <ele>658</ele>
        <time>2015-03-27T09:26:30Z</time>
      </trkpt>
      <trkpt lat="46.61408" lon="5.85953">
        <ele>658</ele>
        <time>2015-03-27T09:26:49Z</time>
      </trkpt>
      <trkpt lat="46.61425" lon="5.85974">
        <ele>662</ele>
        <time>2015-03-27T09:27:15Z</time>
      </trkpt>
      <trkpt lat="46.61433" lon="5.85976">
        <ele>662</ele>
        <time>2015-03-27T09:27:38Z</time>
      </trkpt>
      <trkpt lat="46.6143" lon="5.85989">
        <ele>662</ele>
        <time>2015-03-27T09:27:49Z</time>
      </trkpt>
      <trkpt lat="46.61428" lon="5.86002">
        <ele>662</ele>
        <time>2015-03-27T09:28:01Z</time>
      </trkpt>
      <trkpt lat="46.61435" lon="5.86028">
        <ele>665</ele>
        <time>2015-03-27T09:28:27Z</time>
      </trkpt>
      <trkpt lat="46.6143" lon="5.86039">
        <ele>665</ele>
        <time>2015-03-27T09:28:41Z</time>
      </trkpt>
      <trkpt lat="46.61439" lon="5.86043">
        <ele>666</ele>
        <time>2015-03-27T09:28:55Z</time>
      </trkpt>
      <trkpt lat="46.61456" lon="5.86055">
        <ele>667</ele>
        <time>2015-03-27T09:29:16Z</time>
      </trkpt>
      <trkpt lat="46.61464" lon="5.86061">
        <ele>666</ele>
        <time>2015-03-27T09:29:30Z</time>
      </trkpt>
      <trkpt lat="46.6147" lon="5.86065">
        <ele>664</ele>
        <time>2015-03-27T09:29:46Z</time>
      </trkpt>
      <trkpt lat="46.61479" lon="5.86056">
        <ele>662</ele>
        <time>2015-03-27T09:30:48Z</time>
      </trkpt>
      <trkpt lat="46.61472" lon="5.86058">
        <ele>667</ele>
        <time>2015-03-27T09:31:06Z</time>
      </trkpt>
      <trkpt lat="46.61464" lon="5.8605">
        <ele>668</ele>
        <time>2015-03-27T09:31:13Z</time>
      </trkpt>
      <trkpt lat="46.61464" lon="5.86051">
        <ele>675</ele>
        <time>2015-03-27T09:31:43Z</time>
      </trkpt>
      <trkpt lat="46.61469" lon="5.86063">
        <ele>674</ele>
        <time>2015-03-27T09:31:51Z</time>
      </trkpt>
      <trkpt lat="46.6148" lon="5.86067">
        <ele>673</ele>
        <time>2015-03-27T09:31:58Z</time>
      </trkpt>
      <trkpt lat="46.6147" lon="5.86047">
        <ele>674</ele>
        <time>2015-03-27T09:32:19Z</time>
      </trkpt>
      <trkpt lat="46.61472" lon="5.8606">
        <ele>674</ele>
        <time>2015-03-27T09:32:27Z</time>
      </trkpt>
      <trkpt lat="46.61475" lon="5.86073">
        <ele>674</ele>
        <time>2015-03-27T09:32:41Z</time>
      </trkpt>
      <trkpt lat="46.61479" lon="5.86079">
        <ele>677</ele>
        <time>2015-03-27T09:33:28Z</time>
      </trkpt>
      <trkpt lat="46.61479" lon="5.86092">
        <ele>677</ele>
        <time>2015-03-27T09:33:36Z</time>
      </trkpt>
      <trkpt lat="46.61481" lon="5.86119">
        <ele>673</ele>
        <time>2015-03-27T09:34:03Z</time>
      </trkpt>
      <trkpt lat="46.61474" lon="5.86131">
        <ele>672</ele>
        <time>2015-03-27T09:34:12Z</time>
      </trkpt>
      <trkpt lat="46.61479" lon="5.86143">
        <ele>670</ele>
        <time>2015-03-27T09:34:44Z</time>
      </trkpt>
      <trkpt lat="46.61495" lon="5.86174">
        <ele>682</ele>
        <time>2015-03-27T09:35:40Z</time>
      </trkpt>
      <trkpt lat="46.61492" lon="5.86188">
        <ele>682</ele>
        <time>2015-03-27T09:35:51Z</time>
      </trkpt>
      <trkpt lat="46.61495" lon="5.86201">
        <ele>684</ele>
        <time>2015-03-27T09:35:58Z</time>
      </trkpt>
      <trkpt lat="46.61504" lon="5.86221">
        <ele>688</ele>
        <time>2015-03-27T09:36:34Z</time>
      </trkpt>
      <trkpt lat="46.61506" lon="5.86234">
        <ele>689</ele>
        <time>2015-03-27T09:36:46Z</time>
      </trkpt>
      <trkpt lat="46.61514" lon="5.86247">
        <ele>691</ele>
        <time>2015-03-27T09:37:10Z</time>
      </trkpt>
      <trkpt lat="46.61522" lon="5.86257">
        <ele>690</ele>
        <time>2015-03-27T09:37:29Z</time>
      </trkpt>
      <trkpt lat="46.61528" lon="5.86269">
        <ele>688</ele>
        <time>2015-03-27T09:38:16Z</time>
      </trkpt>
      <trkpt lat="46.61526" lon="5.86279">
        <ele>689</ele>
        <time>2015-03-27T09:38:49Z</time>
      </trkpt>
      <trkpt lat="46.6153" lon="5.86291">
        <ele>688</ele>
        <time>2015-03-27T09:39:07Z</time>
      </trkpt>
      <trkpt lat="46.61537" lon="5.86299">
        <ele>688</ele>
        <time>2015-03-27T09:39:17Z</time>
      </trkpt>
      <trkpt lat="46.6154" lon="5.86312">
        <ele>688</ele>
        <time>2015-03-27T09:39:29Z</time>
      </trkpt>
      <trkpt lat="46.61542" lon="5.86326">
        <ele>688</ele>
        <time>2015-03-27T09:39:37Z</time>
      </trkpt>
      <trkpt lat="46.61543" lon="5.86333">
        <ele>690</ele>
        <time>2015-03-27T09:39:49Z</time>
      </trkpt>
      <trkpt lat="46.61536" lon="5.86342">
        <ele>690</ele>
        <time>2015-03-27T09:40:20Z</time>
      </trkpt>
      <trkpt lat="46.61526" lon="5.86367">
        <ele>694</ele>
        <time>2015-03-27T09:40:54Z</time>
      </trkpt>
      <trkpt lat="46.61538" lon="5.86369">
        <ele>697</ele>
        <time>2015-03-27T09:41:28Z</time>
      </trkpt>
      <trkpt lat="46.61541" lon="5.86374">
        <ele>700</ele>
        <time>2015-03-27T09:41:39Z</time>
      </trkpt>
      <trkpt lat="46.61532" lon="5.86379">
        <ele>701</ele>
        <time>2015-03-27T09:42:10Z</time>
      </trkpt>
      <trkpt lat="46.61525" lon="5.86388">
        <ele>701</ele>
        <time>2015-03-27T09:42:22Z</time>
      </trkpt>
      <trkpt lat="46.61525" lon="5.86402">
        <ele>703</ele>
        <time>2015-03-27T09:42:34Z</time>
      </trkpt>
      <trkpt lat="46.6153" lon="5.86421">
        <ele>706</ele>
        <time>2015-03-27T09:43:03Z</time>
      </trkpt>
      <trkpt lat="46.61525" lon="5.86422">
        <ele>707</ele>
        <time>2015-03-27T09:43:17Z</time>
      </trkpt>
      <trkpt lat="46.61524" lon="5.86435">
        <ele>707</ele>
        <time>2015-03-27T09:43:31Z</time>
      </trkpt>
      <trkpt lat="46.61523" lon="5.86449">
        <ele>702</ele>
        <time>2015-03-27T09:44:10Z</time>
      </trkpt>
      <trkpt lat="46.61519" lon="5.86462">
        <ele>702</ele>
        <time>2015-03-27T09:44:20Z</time>
      </trkpt>
      <trkpt lat="46.61516" lon="5.86475">
        <ele>704</ele>
        <time>2015-03-27T09:44:37Z</time>
      </trkpt>
      <trkpt lat="46.61509" lon="5.86485">
        <ele>705</ele>
        <time>2015-03-27T09:44:53Z</time>
      </trkpt>
      <trkpt lat="46.61508" lon="5.86493">
        <ele>705</ele>
        <time>2015-03-27T09:45:17Z</time>
      </trkpt>
      <trkpt lat="46.61509" lon="5.8652">
        <ele>701</ele>
        <time>2015-03-27T09:45:38Z</time>
      </trkpt>
      <trkpt lat="46.6151" lon="5.86533">
        <ele>701</ele>
        <time>2015-03-27T09:45:45Z</time>
      </trkpt>
      <trkpt lat="46.61513" lon="5.86546">
        <ele>702</ele>
        <time>2015-03-27T09:46:00Z</time>
      </trkpt>
      <trkpt lat="46.61511" lon="5.8656">
        <ele>703</ele>
        <time>2015-03-27T09:46:15Z</time>
      </trkpt>
      <trkpt lat="46.61505" lon="5.86563">
        <ele>703</ele>
        <time>2015-03-27T09:46:29Z</time>
      </trkpt>
      <trkpt lat="46.61504" lon="5.8657">
        <ele>703</ele>
        <time>2015-03-27T09:46:40Z</time>
      </trkpt>
      <trkpt lat="46.615" lon="5.86582">
        <ele>703</ele>
        <time>2015-03-27T09:46:53Z</time>
      </trkpt>
      <trkpt lat="46.61504" lon="5.86594">
        <ele>703</ele>
        <time>2015-03-27T09:47:13Z</time>
      </trkpt>
      <trkpt lat="46.61509" lon="5.86605">
        <ele>704</ele>
        <time>2015-03-27T09:47:37Z</time>
      </trkpt>
      <trkpt lat="46.61514" lon="5.86616">
        <ele>705</ele>
        <time>2015-03-27T09:47:50Z</time>
      </trkpt>
      <trkpt lat="46.61518" lon="5.8663">
        <ele>706</ele>
        <time>2015-03-27T09:48:00Z</time>
      </trkpt>
      <trkpt lat="46.61512" lon="5.86638">
        <ele>715</ele>
        <time>2015-03-27T09:50:03Z</time>
      </trkpt>
      <trkpt lat="46.61506" lon="5.86644">
        <ele>714</ele>
        <time>2015-03-27T09:50:44Z</time>
      </trkpt>
      <trkpt lat="46.61499" lon="5.86641">
        <ele>713</ele>
        <time>2015-03-27T09:51:02Z</time>
      </trkpt>
      <trkpt lat="46.615" lon="5.86655">
        <ele>711</ele>
        <time>2015-03-27T09:51:16Z</time>
      </trkpt>
      <trkpt lat="46.61504" lon="5.86667">
        <ele>707</ele>
        <time>2015-03-27T09:51:28Z</time>
      </trkpt>
      <trkpt lat="46.615" lon="5.86658">
        <ele>706</ele>
        <time>2015-03-27T09:52:01Z</time>
      </trkpt>
      <trkpt lat="46.6149" lon="5.86657">
        <ele>705</ele>
        <time>2015-03-27T09:52:08Z</time>
      </trkpt>
      <trkpt lat="46.61481" lon="5.86657">
        <ele>704</ele>
        <time>2015-03-27T09:52:15Z</time>
      </trkpt>
      <trkpt lat="46.61472" lon="5.86663">
        <ele>703</ele>
        <time>2015-03-27T09:52:22Z</time>
      </trkpt>
      <trkpt lat="46.61461" lon="5.86685">
        <ele>702</ele>
        <time>2015-03-27T09:52:47Z</time>
      </trkpt>
      <trkpt lat="46.61463" lon="5.86713">
        <ele>702</ele>
        <time>2015-03-27T09:53:07Z</time>
      </trkpt>
      <trkpt lat="46.61453" lon="5.86737">
        <ele>702</ele>
        <time>2015-03-27T09:53:22Z</time>
      </trkpt>
      <trkpt lat="46.61443" lon="5.86762">
        <ele>703</ele>
        <time>2015-03-27T09:53:44Z</time>
      </trkpt>
      <trkpt lat="46.61443" lon="5.86776">
        <ele>705</ele>
        <time>2015-03-27T09:53:57Z</time>
      </trkpt>
      <trkpt lat="46.61441" lon="5.86779">
        <ele>709</ele>
        <time>2015-03-27T09:54:41Z</time>
      </trkpt>
      <trkpt lat="46.61439" lon="5.86784">
        <ele>707</ele>
        <time>2015-03-27T09:55:48Z</time>
      </trkpt>
      <trkpt lat="46.6144" lon="5.86796">
        <ele>713</ele>
        <time>2015-03-27T09:59:32Z</time>
      </trkpt>
      <trkpt lat="46.61443" lon="5.8679">
        <ele>714</ele>
        <time>2015-03-27T10:00:41Z</time>
      </trkpt>
      <trkpt lat="46.61446" lon="5.8678">
        <ele>715</ele>
        <time>2015-03-27T10:00:58Z</time>
      </trkpt>
      <trkpt lat="46.61443" lon="5.86775">
        <ele>714</ele>
        <time>2015-03-27T10:01:55Z</time>
      </trkpt>
      <trkpt lat="46.61434" lon="5.86768">
        <ele>714</ele>
        <time>2015-03-27T10:02:06Z</time>
      </trkpt>
      <trkpt lat="46.61428" lon="5.86765">
        <ele>702</ele>
        <time>2015-03-27T10:02:47Z</time>
      </trkpt>
      <trkpt lat="46.61421" lon="5.86781">
        <ele>698</ele>
        <time>2015-03-27T10:03:27Z</time>
      </trkpt>
      <trkpt lat="46.61419" lon="5.8681">
        <ele>699</ele>
        <time>2015-03-27T10:03:57Z</time>
      </trkpt>
      <trkpt lat="46.61416" lon="5.86844">
        <ele>709</ele>
        <time>2015-03-27T10:04:30Z</time>
      </trkpt>
      <trkpt lat="46.61414" lon="5.86864">
        <ele>709</ele>
        <time>2015-03-27T10:04:53Z</time>
      </trkpt>
      <trkpt lat="46.61414" lon="5.86876">
        <ele>711</ele>
        <time>2015-03-27T10:05:12Z</time>
      </trkpt>
      <trkpt lat="46.61415" lon="5.86876">
        <ele>705</ele>
        <time>2015-03-27T10:07:45Z</time>
      </trkpt>
      <trkpt lat="46.61405" lon="5.86864">
        <ele>709</ele>
        <time>2015-03-27T10:08:10Z</time>
      </trkpt>
      <trkpt lat="46.61393" lon="5.86859">
        <ele>714</ele>
        <time>2015-03-27T10:08:32Z</time>
      </trkpt>
      <trkpt lat="46.61393" lon="5.86873">
        <ele>712</ele>
        <time>2015-03-27T10:08:42Z</time>
      </trkpt>
      <trkpt lat="46.61387" lon="5.86882">
        <ele>711</ele>
        <time>2015-03-27T10:08:49Z</time>
      </trkpt>
      <trkpt lat="46.61381" lon="5.86893">
        <ele>712</ele>
        <time>2015-03-27T10:08:59Z</time>
      </trkpt>
      <trkpt lat="46.61375" lon="5.86904">
        <ele>713</ele>
        <time>2015-03-27T10:09:11Z</time>
      </trkpt>
      <trkpt lat="46.61369" lon="5.86914">
        <ele>713</ele>
        <time>2015-03-27T10:09:22Z</time>
      </trkpt>
      <trkpt lat="46.61361" lon="5.86922">
        <ele>712</ele>
        <time>2015-03-27T10:09:31Z</time>
      </trkpt>
      <trkpt lat="46.61354" lon="5.8693">
        <ele>713</ele>
        <time>2015-03-27T10:09:40Z</time>
      </trkpt>
      <trkpt lat="46.61353" lon="5.86944">
        <ele>713</ele>
        <time>2015-03-27T10:09:50Z</time>
      </trkpt>
      <trkpt lat="46.61355" lon="5.86957">
        <ele>713</ele>
        <time>2015-03-27T10:09:59Z</time>
      </trkpt>
      <trkpt lat="46.61352" lon="5.8697">
        <ele>714</ele>
        <time>2015-03-27T10:10:08Z</time>
      </trkpt>
      <trkpt lat="46.61339" lon="5.87009">
        <ele>714</ele>
        <time>2015-03-27T10:10:36Z</time>
      </trkpt>
      <trkpt lat="46.61338" lon="5.87023">
        <ele>714</ele>
        <time>2015-03-27T10:10:45Z</time>
      </trkpt>
      <trkpt lat="46.6134" lon="5.87036">
        <ele>715</ele>
        <time>2015-03-27T10:10:56Z</time>
      </trkpt>
      <trkpt lat="46.6134" lon="5.87078">
        <ele>716</ele>
        <time>2015-03-27T10:11:26Z</time>
      </trkpt>
      <trkpt lat="46.61337" lon="5.87091">
        <ele>715</ele>
        <time>2015-03-27T10:11:38Z</time>
      </trkpt>
      <trkpt lat="46.61336" lon="5.87118">
        <ele>712</ele>
        <time>2015-03-27T10:12:00Z</time>
      </trkpt>
      <trkpt lat="46.61339" lon="5.87131">
        <ele>712</ele>
        <time>2015-03-27T10:12:11Z</time>
      </trkpt>
      <trkpt lat="46.61329" lon="5.87154">
        <ele>711</ele>
        <time>2015-03-27T10:12:29Z</time>
      </trkpt>
      <trkpt lat="46.6133" lon="5.87168">
        <ele>709</ele>
        <time>2015-03-27T10:12:38Z</time>
      </trkpt>
      <trkpt lat="46.61335" lon="5.87181">
        <ele>709</ele>
        <time>2015-03-27T10:12:46Z</time>
      </trkpt>
      <trkpt lat="46.61335" lon="5.87208">
        <ele>710</ele>
        <time>2015-03-27T10:12:59Z</time>
      </trkpt>
      <trkpt lat="46.61331" lon="5.8722">
        <ele>711</ele>
        <time>2015-03-27T10:13:06Z</time>
      </trkpt>
      <trkpt lat="46.61332" lon="5.87235">
        <ele>712</ele>
        <time>2015-03-27T10:13:17Z</time>
      </trkpt>
      <trkpt lat="46.61341" lon="5.87274">
        <ele>717</ele>
        <time>2015-03-27T10:13:40Z</time>
      </trkpt>
      <trkpt lat="46.61341" lon="5.87287">
        <ele>717</ele>
        <time>2015-03-27T10:13:46Z</time>
      </trkpt>
      <trkpt lat="46.61347" lon="5.87312">
        <ele>720</ele>
        <time>2015-03-27T10:14:03Z</time>
      </trkpt>
      <trkpt lat="46.61354" lon="5.87338">
        <ele>720</ele>
        <time>2015-03-27T10:14:23Z</time>
      </trkpt>
      <trkpt lat="46.61358" lon="5.8735">
        <ele>719</ele>
        <time>2015-03-27T10:14:36Z</time>
      </trkpt>
      <trkpt lat="46.61362" lon="5.87362">
        <ele>719</ele>
        <time>2015-03-27T10:14:45Z</time>
      </trkpt>
      <trkpt lat="46.61369" lon="5.87371">
        <ele>720</ele>
        <time>2015-03-27T10:14:54Z</time>
      </trkpt>
      <trkpt lat="46.61374" lon="5.87384">
        <ele>720</ele>
        <time>2015-03-27T10:15:01Z</time>
      </trkpt>
      <trkpt lat="46.61377" lon="5.87397">
        <ele>719</ele>
        <time>2015-03-27T10:15:09Z</time>
      </trkpt>
      <trkpt lat="46.61375" lon="5.87411">
        <ele>719</ele>
        <time>2015-03-27T10:15:18Z</time>
      </trkpt>
      <trkpt lat="46.61369" lon="5.87421">
        <ele>718</ele>
        <time>2015-03-27T10:15:31Z</time>
      </trkpt>
      <trkpt lat="46.61364" lon="5.87433">
        <ele>719</ele>
        <time>2015-03-27T10:16:03Z</time>
      </trkpt>
      <trkpt lat="46.61356" lon="5.87441">
        <ele>720</ele>
        <time>2015-03-27T10:16:10Z</time>
      </trkpt>
      <trkpt lat="46.61346" lon="5.87473">
        <ele>719</ele>
        <time>2015-03-27T10:16:47Z</time>
      </trkpt>
      <trkpt lat="46.61343" lon="5.87477">
        <ele>721</ele>
        <time>2015-03-27T10:18:23Z</time>
      </trkpt>
      <trkpt lat="46.61339" lon="5.87481">
        <ele>721</ele>
        <time>2015-03-27T10:18:31Z</time>
      </trkpt>
      <trkpt lat="46.61333" lon="5.87492">
        <ele>724</ele>
        <time>2015-03-27T10:18:42Z</time>
      </trkpt>
      <trkpt lat="46.61328" lon="5.87493">
        <ele>724</ele>
        <time>2015-03-27T10:18:48Z</time>
      </trkpt>
      <trkpt lat="46.61325" lon="5.87498">
        <ele>724</ele>
        <time>2015-03-27T10:18:55Z</time>
      </trkpt>
      <trkpt lat="46.61322" lon="5.87504">
        <ele>724</ele>
        <time>2015-03-27T10:19:02Z</time>
      </trkpt>
      <trkpt lat="46.6132" lon="5.87511">
        <ele>724</ele>
        <time>2015-03-27T10:19:07Z</time>
      </trkpt>
      <trkpt lat="46.61313" lon="5.87523">
        <ele>721</ele>
        <time>2015-03-27T10:19:17Z</time>
      </trkpt>
      <trkpt lat="46.6131" lon="5.87529">
        <ele>721</ele>
        <time>2015-03-27T10:19:21Z</time>
      </trkpt>
      <trkpt lat="46.61302" lon="5.87537">
        <ele>721</ele>
        <time>2015-03-27T10:19:28Z</time>
      </trkpt>
      <trkpt lat="46.61296" lon="5.87546">
        <ele>720</ele>
        <time>2015-03-27T10:19:39Z</time>
      </trkpt>
      <trkpt lat="46.61291" lon="5.87559">
        <ele>719</ele>
        <time>2015-03-27T10:19:49Z</time>
      </trkpt>
      <trkpt lat="46.61282" lon="5.87582">
        <ele>720</ele>
        <time>2015-03-27T10:20:07Z</time>
      </trkpt>
      <trkpt lat="46.61272" lon="5.87621">
        <ele>717</ele>
        <time>2015-03-27T10:20:38Z</time>
      </trkpt>
      <trkpt lat="46.61271" lon="5.87635">
        <ele>717</ele>
        <time>2015-03-27T10:20:48Z</time>
      </trkpt>
      <trkpt lat="46.61266" lon="5.87661">
        <ele>719</ele>
        <time>2015-03-27T10:21:05Z</time>
      </trkpt>
      <trkpt lat="46.61264" lon="5.87674">
        <ele>720</ele>
        <time>2015-03-27T10:21:16Z</time>
      </trkpt>
      <trkpt lat="46.61261" lon="5.87687">
        <ele>720</ele>
        <time>2015-03-27T10:21:29Z</time>
      </trkpt>
      <trkpt lat="46.61259" lon="5.877">
        <ele>720</ele>
        <time>2015-03-27T10:21:39Z</time>
      </trkpt>
      <trkpt lat="46.61256" lon="5.87713">
        <ele>720</ele>
        <time>2015-03-27T10:21:52Z</time>
      </trkpt>
      <trkpt lat="46.61231" lon="5.87755">
        <ele>725</ele>
        <time>2015-03-27T10:22:26Z</time>
      </trkpt>
      <trkpt lat="46.61228" lon="5.87767">
        <ele>726</ele>
        <time>2015-03-27T10:22:38Z</time>
      </trkpt>
      <trkpt lat="46.61223" lon="5.8778">
        <ele>726</ele>
        <time>2015-03-27T10:22:46Z</time>
      </trkpt>
      <trkpt lat="46.6122" lon="5.87793">
        <ele>725</ele>
        <time>2015-03-27T10:22:53Z</time>
      </trkpt>
      <trkpt lat="46.61215" lon="5.87834">
        <ele>725</ele>
        <time>2015-03-27T10:23:19Z</time>
      </trkpt>
      <trkpt lat="46.61204" lon="5.87873">
        <ele>723</ele>
        <time>2015-03-27T10:23:48Z</time>
      </trkpt>
      <trkpt lat="46.61194" lon="5.87915">
        <ele>723</ele>
        <time>2015-03-27T10:24:24Z</time>
      </trkpt>
      <trkpt lat="46.61175" lon="5.87949">
        <ele>724</ele>
        <time>2015-03-27T10:24:55Z</time>
      </trkpt>
      <trkpt lat="46.6116" lon="5.87967">
        <ele>726</ele>
        <time>2015-03-27T10:25:17Z</time>
      </trkpt>
      <trkpt lat="46.61155" lon="5.87972">
        <ele>726</ele>
        <time>2015-03-27T10:25:22Z</time>
      </trkpt>
      <trkpt lat="46.61153" lon="5.87978">
        <ele>726</ele>
        <time>2015-03-27T10:25:27Z</time>
      </trkpt>
      <trkpt lat="46.61135" lon="5.88">
        <ele>729</ele>
        <time>2015-03-27T10:25:51Z</time>
      </trkpt>
      <trkpt lat="46.61135" lon="5.88008">
        <ele>729</ele>
        <time>2015-03-27T10:25:55Z</time>
      </trkpt>
      <trkpt lat="46.61127" lon="5.88025">
        <ele>730</ele>
        <time>2015-03-27T10:26:09Z</time>
      </trkpt>
      <trkpt lat="46.61123" lon="5.88031">
        <ele>730</ele>
        <time>2015-03-27T10:26:13Z</time>
      </trkpt>
      <trkpt lat="46.61118" lon="5.88034">
        <ele>730</ele>
        <time>2015-03-27T10:26:17Z</time>
      </trkpt>
      <trkpt lat="46.61114" lon="5.88048">
        <ele>731</ele>
        <time>2015-03-27T10:26:25Z</time>
      </trkpt>
      <trkpt lat="46.61105" lon="5.88055">
        <ele>731</ele>
        <time>2015-03-27T10:26:35Z</time>
      </trkpt>
      <trkpt lat="46.61084" lon="5.8808">
        <ele>728</ele>
        <time>2015-03-27T10:27:04Z</time>
      </trkpt>
      <trkpt lat="46.61077" lon="5.88091">
        <ele>728</ele>
        <time>2015-03-27T10:27:13Z</time>
      </trkpt>
      <trkpt lat="46.61073" lon="5.88103">
        <ele>729</ele>
        <time>2015-03-27T10:27:26Z</time>
      </trkpt>
      <trkpt lat="46.61074" lon="5.88107">
        <ele>730</ele>
        <time>2015-03-27T10:28:16Z</time>
      </trkpt>
      <trkpt lat="46.61077" lon="5.88123">
        <ele>731</ele>
        <time>2015-03-27T10:28:23Z</time>
      </trkpt>
      <trkpt lat="46.61076" lon="5.88111">
        <ele>731</ele>
        <time>2015-03-27T10:28:53Z</time>
      </trkpt>
      <trkpt lat="46.61082" lon="5.88112">
        <ele>735</ele>
        <time>2015-03-27T10:29:23Z</time>
      </trkpt>
      <trkpt lat="46.61085" lon="5.88128">
        <ele>738</ele>
        <time>2015-03-27T10:29:41Z</time>
      </trkpt>
      <trkpt lat="46.61087" lon="5.88141">
        <ele>739</ele>
        <time>2015-03-27T10:29:51Z</time>
      </trkpt>
      <trkpt lat="46.61094" lon="5.88151">
        <ele>740</ele>
        <time>2015-03-27T10:30:00Z</time>
      </trkpt>
      <trkpt lat="46.61099" lon="5.88164">
        <ele>740</ele>
        <time>2015-03-27T10:30:12Z</time>
      </trkpt>
      <trkpt lat="46.61111" lon="5.88186">
        <ele>735</ele>
        <time>2015-03-27T10:30:37Z</time>
      </trkpt>
      <trkpt lat="46.61118" lon="5.88195">
        <ele>735</ele>
        <time>2015-03-27T10:30:46Z</time>
      </trkpt>
      <trkpt lat="46.61126" lon="5.88203">
        <ele>735</ele>
        <time>2015-03-27T10:30:54Z</time>
      </trkpt>
      <trkpt lat="46.61133" lon="5.88213">
        <ele>735</ele>
        <time>2015-03-27T10:31:03Z</time>
      </trkpt>
      <trkpt lat="46.61148" lon="5.88229">
        <ele>738</ele>
        <time>2015-03-27T10:31:19Z</time>
      </trkpt>
      <trkpt lat="46.61163" lon="5.88264">
        <ele>736</ele>
        <time>2015-03-27T10:31:47Z</time>
      </trkpt>
      <trkpt lat="46.61166" lon="5.88277">
        <ele>736</ele>
        <time>2015-03-27T10:31:55Z</time>
      </trkpt>
      <trkpt lat="46.61165" lon="5.88291">
        <ele>736</ele>
        <time>2015-03-27T10:32:08Z</time>
      </trkpt>
      <trkpt lat="46.61158" lon="5.88319">
        <ele>731</ele>
        <time>2015-03-27T10:32:41Z</time>
      </trkpt>
      <trkpt lat="46.6116" lon="5.88325">
        <ele>731</ele>
        <time>2015-03-27T10:32:52Z</time>
      </trkpt>
      <trkpt lat="46.61165" lon="5.88332">
        <ele>731</ele>
        <time>2015-03-27T10:32:59Z</time>
      </trkpt>
      <trkpt lat="46.61173" lon="5.88339">
        <ele>729</ele>
        <time>2015-03-27T10:33:08Z</time>
      </trkpt>
      <trkpt lat="46.61177" lon="5.88342">
        <ele>729</ele>
        <time>2015-03-27T10:33:15Z</time>
      </trkpt>
      <trkpt lat="46.61186" lon="5.88346">
        <ele>730</ele>
        <time>2015-03-27T10:33:26Z</time>
      </trkpt>
      <trkpt lat="46.61198" lon="5.88361">
        <ele>735</ele>
        <time>2015-03-27T10:33:55Z</time>
      </trkpt>
      <trkpt lat="46.61201" lon="5.88355">
        <ele>737</ele>
        <time>2015-03-27T10:34:25Z</time>
      </trkpt>
      <trkpt lat="46.61205" lon="5.88338">
        <ele>737</ele>
        <time>2015-03-27T10:36:10Z</time>
      </trkpt>
      <trkpt lat="46.61209" lon="5.88326">
        <ele>735</ele>
        <time>2015-03-27T10:36:21Z</time>
      </trkpt>
      <trkpt lat="46.61208" lon="5.88311">
        <ele>736</ele>
        <time>2015-03-27T10:36:28Z</time>
      </trkpt>
      <trkpt lat="46.61204" lon="5.88311">
        <ele>734</ele>
        <time>2015-03-27T10:37:50Z</time>
      </trkpt>
      <trkpt lat="46.61207" lon="5.8832">
        <ele>734</ele>
        <time>2015-03-27T10:37:59Z</time>
      </trkpt>
      <trkpt lat="46.61206" lon="5.88334">
        <ele>732</ele>
        <time>2015-03-27T10:38:08Z</time>
      </trkpt>
      <trkpt lat="46.61196" lon="5.88351">
        <ele>730</ele>
        <time>2015-03-27T10:38:21Z</time>
      </trkpt>
      <trkpt lat="46.61191" lon="5.88352">
        <ele>730</ele>
        <time>2015-03-27T10:38:27Z</time>
      </trkpt>
      <trkpt lat="46.61186" lon="5.88348">
        <ele>730</ele>
        <time>2015-03-27T10:38:31Z</time>
      </trkpt>
      <trkpt lat="46.61178" lon="5.88342">
        <ele>728</ele>
        <time>2015-03-27T10:38:43Z</time>
      </trkpt>
      <trkpt lat="46.6117" lon="5.88332">
        <ele>727</ele>
        <time>2015-03-27T10:38:54Z</time>
      </trkpt>
      <trkpt lat="46.61162" lon="5.88326">
        <ele>727</ele>
        <time>2015-03-27T10:39:08Z</time>
      </trkpt>
      <trkpt lat="46.6116" lon="5.88313">
        <ele>727</ele>
        <time>2015-03-27T10:39:16Z</time>
      </trkpt>
      <trkpt lat="46.61166" lon="5.88303">
        <ele>727</ele>
        <time>2015-03-27T10:39:23Z</time>
      </trkpt>
      <trkpt lat="46.61168" lon="5.88289">
        <ele>726</ele>
        <time>2015-03-27T10:39:32Z</time>
      </trkpt>
      <trkpt lat="46.61169" lon="5.88276">
        <ele>726</ele>
        <time>2015-03-27T10:39:40Z</time>
      </trkpt>
      <trkpt lat="46.61161" lon="5.88237">
        <ele>728</ele>
        <time>2015-03-27T10:40:07Z</time>
      </trkpt>
      <trkpt lat="46.61155" lon="5.88226">
        <ele>727</ele>
        <time>2015-03-27T10:40:15Z</time>
      </trkpt>
      <trkpt lat="46.61124" lon="5.88198">
        <ele>728</ele>
        <time>2015-03-27T10:40:52Z</time>
      </trkpt>
      <trkpt lat="46.61091" lon="5.88166">
        <ele>732</ele>
        <time>2015-03-27T10:41:23Z</time>
      </trkpt>
      <trkpt lat="46.61082" lon="5.88164">
        <ele>732</ele>
        <time>2015-03-27T10:41:33Z</time>
      </trkpt>
      <trkpt lat="46.61063" lon="5.88154">
        <ele>730</ele>
        <time>2015-03-27T10:41:51Z</time>
      </trkpt>
      <trkpt lat="46.61059" lon="5.88145">
        <ele>730</ele>
        <time>2015-03-27T10:41:53Z</time>
      </trkpt>
      <trkpt lat="46.61055" lon="5.88128">
        <ele>731</ele>
        <time>2015-03-27T10:42:07Z</time>
      </trkpt>
      <trkpt lat="46.61047" lon="5.88122">
        <ele>731</ele>
        <time>2015-03-27T10:42:15Z</time>
      </trkpt>
      <trkpt lat="46.6104" lon="5.88107">
        <ele>732</ele>
        <time>2015-03-27T10:42:31Z</time>
      </trkpt>
      <trkpt lat="46.61043" lon="5.88079">
        <ele>735</ele>
        <time>2015-03-27T10:42:50Z</time>
      </trkpt>
      <trkpt lat="46.61058" lon="5.88043">
        <ele>737</ele>
        <time>2015-03-27T10:43:22Z</time>
      </trkpt>
      <trkpt lat="46.61065" lon="5.88005">
        <ele>740</ele>
        <time>2015-03-27T10:43:50Z</time>
      </trkpt>
      <trkpt lat="46.61071" lon="5.87994">
        <ele>741</ele>
        <time>2015-03-27T10:43:57Z</time>
      </trkpt>
      <trkpt lat="46.61081" lon="5.87988">
        <ele>743</ele>
        <time>2015-03-27T10:44:04Z</time>
      </trkpt>
      <trkpt lat="46.61085" lon="5.87974">
        <ele>744</ele>
        <time>2015-03-27T10:44:11Z</time>
      </trkpt>
      <trkpt lat="46.6108" lon="5.87963">
        <ele>744</ele>
        <time>2015-03-27T10:44:18Z</time>
      </trkpt>
      <trkpt lat="46.61076" lon="5.87951">
        <ele>744</ele>
        <time>2015-03-27T10:44:28Z</time>
      </trkpt>
      <trkpt lat="46.61076" lon="5.87937">
        <ele>745</ele>
        <time>2015-03-27T10:44:38Z</time>
      </trkpt>
      <trkpt lat="46.61069" lon="5.87929">
        <ele>746</ele>
        <time>2015-03-27T10:44:44Z</time>
      </trkpt>
      <trkpt lat="46.61066" lon="5.87915">
        <ele>748</ele>
        <time>2015-03-27T10:44:55Z</time>
      </trkpt>
      <trkpt lat="46.61063" lon="5.87901">
        <ele>748</ele>
        <time>2015-03-27T10:45:06Z</time>
      </trkpt>
      <trkpt lat="46.61056" lon="5.87894">
        <ele>748</ele>
        <time>2015-03-27T10:45:10Z</time>
      </trkpt>
      <trkpt lat="46.61049" lon="5.87888">
        <ele>748</ele>
        <time>2015-03-27T10:45:12Z</time>
      </trkpt>
      <trkpt lat="46.61049" lon="5.87875">
        <ele>748</ele>
        <time>2015-03-27T10:45:31Z</time>
      </trkpt>
      <trkpt lat="46.61046" lon="5.87862">
        <ele>748</ele>
        <time>2015-03-27T10:45:41Z</time>
      </trkpt>
      <trkpt lat="46.61049" lon="5.8785">
        <ele>748</ele>
        <time>2015-03-27T10:45:51Z</time>
      </trkpt>
      <trkpt lat="46.61046" lon="5.87837">
        <ele>749</ele>
        <time>2015-03-27T10:46:01Z</time>
      </trkpt>
      <trkpt lat="46.61037" lon="5.87813">
        <ele>752</ele>
        <time>2015-03-27T10:46:26Z</time>
      </trkpt>
      <trkpt lat="46.61034" lon="5.87799">
        <ele>752</ele>
        <time>2015-03-27T10:46:37Z</time>
      </trkpt>
      <trkpt lat="46.61029" lon="5.87787">
        <ele>752</ele>
        <time>2015-03-27T10:46:44Z</time>
      </trkpt>
      <trkpt lat="46.61029" lon="5.87774">
        <ele>752</ele>
        <time>2015-03-27T10:47:05Z</time>
      </trkpt>
      <trkpt lat="46.61028" lon="5.87759">
        <ele>754</ele>
        <time>2015-03-27T10:47:23Z</time>
      </trkpt>
      <trkpt lat="46.61022" lon="5.87747">
        <ele>756</ele>
        <time>2015-03-27T10:47:32Z</time>
      </trkpt>
      <trkpt lat="46.61022" lon="5.87734">
        <ele>756</ele>
        <time>2015-03-27T10:47:42Z</time>
      </trkpt>
      <trkpt lat="46.61014" lon="5.87712">
        <ele>756</ele>
        <time>2015-03-27T10:48:17Z</time>
      </trkpt>
      <trkpt lat="46.61008" lon="5.87702">
        <ele>756</ele>
        <time>2015-03-27T10:48:27Z</time>
      </trkpt>
      <trkpt lat="46.61005" lon="5.87689">
        <ele>757</ele>
        <time>2015-03-27T10:48:34Z</time>
      </trkpt>
      <trkpt lat="46.60999" lon="5.87685">
        <ele>758</ele>
        <time>2015-03-27T10:48:44Z</time>
      </trkpt>
      <trkpt lat="46.60998" lon="5.87672">
        <ele>758</ele>
        <time>2015-03-27T10:48:59Z</time>
      </trkpt>
      <trkpt lat="46.60993" lon="5.87659">
        <ele>758</ele>
        <time>2015-03-27T10:49:13Z</time>
      </trkpt>
      <trkpt lat="46.60999" lon="5.87646">
        <ele>757</ele>
        <time>2015-03-27T10:49:25Z</time>
      </trkpt>
      <trkpt lat="46.60994" lon="5.87634">
        <ele>755</ele>
        <time>2015-03-27T10:49:52Z</time>
      </trkpt>
      <trkpt lat="46.60989" lon="5.87621">
        <ele>755</ele>
        <time>2015-03-27T10:50:01Z</time>
      </trkpt>
      <trkpt lat="46.60965" lon="5.8758">
        <ele>762</ele>
        <time>2015-03-27T10:50:40Z</time>
      </trkpt>
      <trkpt lat="46.60947" lon="5.87551">
        <ele>764</ele>
        <time>2015-03-27T10:51:12Z</time>
      </trkpt>
      <trkpt lat="46.60932" lon="5.87516">
        <ele>767</ele>
        <time>2015-03-27T10:51:41Z</time>
      </trkpt>
      <trkpt lat="46.60919" lon="5.87498">
        <ele>764</ele>
        <time>2015-03-27T10:52:04Z</time>
      </trkpt>
      <trkpt lat="46.60911" lon="5.87489">
        <ele>765</ele>
        <time>2015-03-27T10:52:11Z</time>
      </trkpt>
      <trkpt lat="46.60886" lon="5.87447">
        <ele>772</ele>
        <time>2015-03-27T10:52:48Z</time>
      </trkpt>
      <trkpt lat="46.60878" lon="5.87438">
        <ele>772</ele>
        <time>2015-03-27T10:52:58Z</time>
      </trkpt>
      <trkpt lat="46.60847" lon="5.87405">
        <ele>778</ele>
        <time>2015-03-27T10:53:33Z</time>
      </trkpt>
      <trkpt lat="46.60835" lon="5.87384">
        <ele>779</ele>
        <time>2015-03-27T10:53:51Z</time>
      </trkpt>
      <trkpt lat="46.60827" lon="5.87377">
        <ele>779</ele>
        <time>2015-03-27T10:54:01Z</time>
      </trkpt>
      <trkpt lat="46.60824" lon="5.87372">
        <ele>778</ele>
        <time>2015-03-27T10:55:17Z</time>
      </trkpt>
      <trkpt lat="46.60819" lon="5.87368">
        <ele>778</ele>
        <time>2015-03-27T10:55:39Z</time>
      </trkpt>
      <trkpt lat="46.60812" lon="5.87359">
        <ele>781</ele>
        <time>2015-03-27T10:55:52Z</time>
      </trkpt>
      <trkpt lat="46.60807" lon="5.87358">
        <ele>782</ele>
        <time>2015-03-27T10:55:57Z</time>
      </trkpt>
      <trkpt lat="46.60799" lon="5.87348">
        <ele>782</ele>
        <time>2015-03-27T10:56:08Z</time>
      </trkpt>
      <trkpt lat="46.60794" lon="5.87348">
        <ele>782</ele>
        <time>2015-03-27T10:56:11Z</time>
      </trkpt>
      <trkpt lat="46.6079" lon="5.87345">
        <ele>783</ele>
        <time>2015-03-27T10:56:15Z</time>
      </trkpt>
      <trkpt lat="46.60788" lon="5.87338">
        <ele>782</ele>
        <time>2015-03-27T10:56:19Z</time>
      </trkpt>
      <trkpt lat="46.60785" lon="5.87325">
        <ele>781</ele>
        <time>2015-03-27T10:56:29Z</time>
      </trkpt>
      <trkpt lat="46.60761" lon="5.87292">
        <ele>780</ele>
        <time>2015-03-27T10:56:59Z</time>
      </trkpt>
      <trkpt lat="46.60741" lon="5.87263">
        <ele>780</ele>
        <time>2015-03-27T10:57:25Z</time>
      </trkpt>
      <trkpt lat="46.60733" lon="5.87254">
        <ele>780</ele>
        <time>2015-03-27T10:57:34Z</time>
      </trkpt>
      <trkpt lat="46.60728" lon="5.87244">
        <ele>780</ele>
        <time>2015-03-27T10:57:42Z</time>
      </trkpt>
      <trkpt lat="46.60704" lon="5.87199">
        <ele>782</ele>
        <time>2015-03-27T10:58:13Z</time>
      </trkpt>
      <trkpt lat="46.60697" lon="5.87189">
        <ele>782</ele>
        <time>2015-03-27T10:58:23Z</time>
      </trkpt>
      <trkpt lat="46.60688" lon="5.87182">
        <ele>782</ele>
        <time>2015-03-27T10:58:33Z</time>
      </trkpt>
      <trkpt lat="46.60681" lon="5.87172">
        <ele>782</ele>
        <time>2015-03-27T10:58:42Z</time>
      </trkpt>
      <trkpt lat="46.6066" lon="5.87126">
        <ele>785</ele>
        <time>2015-03-27T10:59:14Z</time>
      </trkpt>
      <trkpt lat="46.60653" lon="5.87116">
        <ele>787</ele>
        <time>2015-03-27T10:59:22Z</time>
      </trkpt>
      <trkpt lat="46.60627" lon="5.87076">
        <ele>790</ele>
        <time>2015-03-27T10:59:58Z</time>
      </trkpt>
      <trkpt lat="46.60613" lon="5.87058">
        <ele>792</ele>
        <time>2015-03-27T11:00:14Z</time>
      </trkpt>
      <trkpt lat="46.60599" lon="5.87038">
        <ele>792</ele>
        <time>2015-03-27T11:00:32Z</time>
      </trkpt>
      <trkpt lat="46.60594" lon="5.87012">
        <ele>794</ele>
        <time>2015-03-27T11:00:49Z</time>
      </trkpt>
      <trkpt lat="46.60576" lon="5.8696">
        <ele>796</ele>
        <time>2015-03-27T11:01:22Z</time>
      </trkpt>
      <trkpt lat="46.60559" lon="5.86949">
        <ele>799</ele>
        <time>2015-03-27T11:01:40Z</time>
      </trkpt>
      <trkpt lat="46.60534" lon="5.86929">
        <ele>800</ele>
        <time>2015-03-27T11:02:05Z</time>
      </trkpt>
      <trkpt lat="46.60525" lon="5.86924">
        <ele>800</ele>
        <time>2015-03-27T11:02:14Z</time>
      </trkpt>
      <trkpt lat="46.60508" lon="5.86914">
        <ele>801</ele>
        <time>2015-03-27T11:02:30Z</time>
      </trkpt>
      <trkpt lat="46.6049" lon="5.86903">
        <ele>804</ele>
        <time>2015-03-27T11:02:47Z</time>
      </trkpt>
      <trkpt lat="46.60448" lon="5.86871">
        <ele>805</ele>
        <time>2015-03-27T11:03:24Z</time>
      </trkpt>
      <trkpt lat="46.60435" lon="5.8686">
        <ele>805</ele>
        <time>2015-03-27T11:03:37Z</time>
      </trkpt>
      <trkpt lat="46.60428" lon="5.86851">
        <ele>805</ele>
        <time>2015-03-27T11:03:46Z</time>
      </trkpt>
      <trkpt lat="46.60425" lon="5.86847">
        <ele>805</ele>
        <time>2015-03-27T11:03:50Z</time>
      </trkpt>
      <trkpt lat="46.60421" lon="5.86841">
        <ele>806</ele>
        <time>2015-03-27T11:03:54Z</time>
      </trkpt>
      <trkpt lat="46.60414" lon="5.86831">
        <ele>805</ele>
        <time>2015-03-27T11:04:02Z</time>
      </trkpt>
      <trkpt lat="46.60403" lon="5.86818">
        <ele>806</ele>
        <time>2015-03-27T11:04:15Z</time>
      </trkpt>
      <trkpt lat="46.60391" lon="5.86806">
        <ele>805</ele>
        <time>2015-03-27T11:04:31Z</time>
      </trkpt>
      <trkpt lat="46.60378" lon="5.86792">
        <ele>807</ele>
        <time>2015-03-27T11:04:43Z</time>
      </trkpt>
      <trkpt lat="46.60373" lon="5.86789">
        <ele>807</ele>
        <time>2015-03-27T11:04:47Z</time>
      </trkpt>
      <trkpt lat="46.60356" lon="5.86773">
        <ele>805</ele>
        <time>2015-03-27T11:05:09Z</time>
      </trkpt>
      <trkpt lat="46.60352" lon="5.86773">
        <ele>805</ele>
        <time>2015-03-27T11:05:13Z</time>
      </trkpt>
      <trkpt lat="46.60349" lon="5.86766">
        <ele>806</ele>
        <time>2015-03-27T11:05:19Z</time>
      </trkpt>
      <trkpt lat="46.60345" lon="5.86752">
        <ele>808</ele>
        <time>2015-03-27T11:05:27Z</time>
      </trkpt>
      <trkpt lat="46.60346" lon="5.86744">
        <ele>809</ele>
        <time>2015-03-27T11:05:33Z</time>
      </trkpt>
      <trkpt lat="46.60336" lon="5.8671">
        <ele>811</ele>
        <time>2015-03-27T11:05:56Z</time>
      </trkpt>
      <trkpt lat="46.60336" lon="5.86703">
        <ele>811</ele>
        <time>2015-03-27T11:06:01Z</time>
      </trkpt>
      <trkpt lat="46.60335" lon="5.86696">
        <ele>812</ele>
        <time>2015-03-27T11:06:06Z</time>
      </trkpt>
      <trkpt lat="46.60325" lon="5.86671">
        <ele>817</ele>
        <time>2015-03-27T11:06:25Z</time>
      </trkpt>
      <trkpt lat="46.60322" lon="5.86665">
        <ele>817</ele>
        <time>2015-03-27T11:06:29Z</time>
      </trkpt>
      <trkpt lat="46.60318" lon="5.8666">
        <ele>816</ele>
        <time>2015-03-27T11:06:34Z</time>
      </trkpt>
      <trkpt lat="46.60314" lon="5.86655">
        <ele>816</ele>
        <time>2015-03-27T11:06:38Z</time>
      </trkpt>
      <trkpt lat="46.60307" lon="5.86644">
        <ele>816</ele>
        <time>2015-03-27T11:06:47Z</time>
      </trkpt>
      <trkpt lat="46.60304" lon="5.86639">
        <ele>816</ele>
        <time>2015-03-27T11:06:51Z</time>
      </trkpt>
      <trkpt lat="46.603" lon="5.86634">
        <ele>816</ele>
        <time>2015-03-27T11:06:56Z</time>
      </trkpt>
      <trkpt lat="46.60288" lon="5.86619">
        <ele>817</ele>
        <time>2015-03-27T11:07:11Z</time>
      </trkpt>
      <trkpt lat="46.60259" lon="5.8658">
        <ele>817</ele>
        <time>2015-03-27T11:07:45Z</time>
      </trkpt>
      <trkpt lat="46.60253" lon="5.8657">
        <ele>819</ele>
        <time>2015-03-27T11:07:57Z</time>
      </trkpt>
      <trkpt lat="46.60252" lon="5.86563">
        <ele>819</ele>
        <time>2015-03-27T11:08:03Z</time>
      </trkpt>
      <trkpt lat="46.6025" lon="5.86556">
        <ele>819</ele>
        <time>2015-03-27T11:08:07Z</time>
      </trkpt>
      <trkpt lat="46.60248" lon="5.8655">
        <ele>819</ele>
        <time>2015-03-27T11:08:10Z</time>
      </trkpt>
      <trkpt lat="46.60239" lon="5.86523">
        <ele>821</ele>
        <time>2015-03-27T11:08:26Z</time>
      </trkpt>
      <trkpt lat="46.60231" lon="5.86504">
        <ele>821</ele>
        <time>2015-03-27T11:08:37Z</time>
      </trkpt>
      <trkpt lat="46.60232" lon="5.86498">
        <ele>821</ele>
        <time>2015-03-27T11:08:43Z</time>
      </trkpt>
      <trkpt lat="46.60231" lon="5.8649">
        <ele>820</ele>
        <time>2015-03-27T11:08:51Z</time>
      </trkpt>
      <trkpt lat="46.60229" lon="5.86484">
        <ele>820</ele>
        <time>2015-03-27T11:08:57Z</time>
      </trkpt>
      <trkpt lat="46.60225" lon="5.86477">
        <ele>820</ele>
        <time>2015-03-27T11:09:02Z</time>
      </trkpt>
      <trkpt lat="46.60223" lon="5.86471">
        <ele>820</ele>
        <time>2015-03-27T11:09:07Z</time>
      </trkpt>
      <trkpt lat="46.6022" lon="5.86464">
        <ele>820</ele>
        <time>2015-03-27T11:09:12Z</time>
      </trkpt>
      <trkpt lat="46.60216" lon="5.8645">
        <ele>820</ele>
        <time>2015-03-27T11:09:22Z</time>
      </trkpt>
      <trkpt lat="46.60213" lon="5.86436">
        <ele>820</ele>
        <time>2015-03-27T11:09:32Z</time>
      </trkpt>
      <trkpt lat="46.60212" lon="5.86428">
        <ele>821</ele>
        <time>2015-03-27T11:09:36Z</time>
      </trkpt>
      <trkpt lat="46.60206" lon="5.86416">
        <ele>821</ele>
        <time>2015-03-27T11:09:46Z</time>
      </trkpt>
      <trkpt lat="46.602" lon="5.86406">
        <ele>819</ele>
        <time>2015-03-27T11:09:57Z</time>
      </trkpt>
      <trkpt lat="46.60197" lon="5.864">
        <ele>819</ele>
        <time>2015-03-27T11:10:01Z</time>
      </trkpt>
      <trkpt lat="46.60194" lon="5.86394">
        <ele>819</ele>
        <time>2015-03-27T11:10:05Z</time>
      </trkpt>
      <trkpt lat="46.60188" lon="5.86382">
        <ele>819</ele>
        <time>2015-03-27T11:10:14Z</time>
      </trkpt>
      <trkpt lat="46.60185" lon="5.86376">
        <ele>819</ele>
        <time>2015-03-27T11:10:19Z</time>
      </trkpt>
      <trkpt lat="46.60182" lon="5.86371">
        <ele>819</ele>
        <time>2015-03-27T11:10:24Z</time>
      </trkpt>
      <trkpt lat="46.60179" lon="5.86364">
        <ele>820</ele>
        <time>2015-03-27T11:10:31Z</time>
      </trkpt>
      <trkpt lat="46.60172" lon="5.86355">
        <ele>818</ele>
        <time>2015-03-27T11:10:45Z</time>
      </trkpt>
      <trkpt lat="46.60169" lon="5.8635">
        <ele>819</ele>
        <time>2015-03-27T11:10:49Z</time>
      </trkpt>
      <trkpt lat="46.60166" lon="5.86344">
        <ele>819</ele>
        <time>2015-03-27T11:10:53Z</time>
      </trkpt>
      <trkpt lat="46.6016" lon="5.86334">
        <ele>813</ele>
        <time>2015-03-27T11:11:12Z</time>
      </trkpt>
      <trkpt lat="46.60153" lon="5.86313">
        <ele>812</ele>
        <time>2015-03-27T11:11:24Z</time>
      </trkpt>
      <trkpt lat="46.60145" lon="5.86304">
        <ele>813</ele>
        <time>2015-03-27T11:11:34Z</time>
      </trkpt>
      <trkpt lat="46.60142" lon="5.86299">
        <ele>814</ele>
        <time>2015-03-27T11:11:38Z</time>
      </trkpt>
      <trkpt lat="46.60126" lon="5.86283">
        <ele>815</ele>
        <time>2015-03-27T11:11:55Z</time>
      </trkpt>
      <trkpt lat="46.60119" lon="5.86272">
        <ele>815</ele>
        <time>2015-03-27T11:12:01Z</time>
      </trkpt>
      <trkpt lat="46.60111" lon="5.86263">
        <ele>815</ele>
        <time>2015-03-27T11:12:09Z</time>
      </trkpt>
      <trkpt lat="46.60101" lon="5.86259">
        <ele>816</ele>
        <time>2015-03-27T11:12:25Z</time>
      </trkpt>
      <trkpt lat="46.60096" lon="5.86255">
        <ele>816</ele>
        <time>2015-03-27T11:12:36Z</time>
      </trkpt>
      <trkpt lat="46.60086" lon="5.86255">
        <ele>815</ele>
        <time>2015-03-27T11:12:43Z</time>
      </trkpt>
      <trkpt lat="46.60082" lon="5.86252">
        <ele>815</ele>
        <time>2015-03-27T11:12:47Z</time>
      </trkpt>
      <trkpt lat="46.60078" lon="5.86249">
        <ele>816</ele>
        <time>2015-03-27T11:12:51Z</time>
      </trkpt>
      <trkpt lat="46.60063" lon="5.8624">
        <ele>817</ele>
        <time>2015-03-27T11:13:03Z</time>
      </trkpt>
      <trkpt lat="46.60058" lon="5.86239">
        <ele>816</ele>
        <time>2015-03-27T11:13:10Z</time>
      </trkpt>
      <trkpt lat="46.60054" lon="5.86238">
        <ele>815</ele>
        <time>2015-03-27T11:13:17Z</time>
      </trkpt>
      <trkpt lat="46.60059" lon="5.86231">
        <ele>814</ele>
        <time>2015-03-27T11:14:09Z</time>
      </trkpt>
      <trkpt lat="46.60067" lon="5.86223">
        <ele>814</ele>
        <time>2015-03-27T11:14:22Z</time>
      </trkpt>
      <trkpt lat="46.6008" lon="5.86208">
        <ele>814</ele>
        <time>2015-03-27T11:14:36Z</time>
      </trkpt>
      <trkpt lat="46.60091" lon="5.86196">
        <ele>816</ele>
        <time>2015-03-27T11:14:54Z</time>
      </trkpt>
      <trkpt lat="46.60093" lon="5.86188">
        <ele>816</ele>
        <time>2015-03-27T11:15:00Z</time>
      </trkpt>
      <trkpt lat="46.60102" lon="5.86182">
        <ele>816</ele>
        <time>2015-03-27T11:15:12Z</time>
      </trkpt>
      <trkpt lat="46.60111" lon="5.86178">
        <ele>818</ele>
        <time>2015-03-27T11:15:38Z</time>
      </trkpt>
      <trkpt lat="46.60119" lon="5.86171">
        <ele>818</ele>
        <time>2015-03-27T11:15:54Z</time>
      </trkpt>
      <trkpt lat="46.60124" lon="5.86172">
        <ele>818</ele>
        <time>2015-03-27T11:16:00Z</time>
      </trkpt>
      <trkpt lat="46.60128" lon="5.86176">
        <ele>818</ele>
        <time>2015-03-27T11:16:08Z</time>
      </trkpt>
      <trkpt lat="46.60129" lon="5.86173">
        <ele>822</ele>
        <time>2015-03-27T11:17:25Z</time>
      </trkpt>
      <trkpt lat="46.60124" lon="5.8617">
        <ele>822</ele>
        <time>2015-03-27T11:17:29Z</time>
      </trkpt>
      <trkpt lat="46.6012" lon="5.86167">
        <ele>821</ele>
        <time>2015-03-27T11:17:37Z</time>
      </trkpt>
      <trkpt lat="46.60116" lon="5.86165">
        <ele>822</ele>
        <time>2015-03-27T11:17:46Z</time>
      </trkpt>
      <trkpt lat="46.60115" lon="5.8617">
        <ele>822</ele>
        <time>2015-03-27T11:17:58Z</time>
      </trkpt>
      <trkpt lat="46.60114" lon="5.86174">
        <ele>823</ele>
        <time>2015-03-27T11:19:02Z</time>
      </trkpt>
      <trkpt lat="46.60112" lon="5.86172">
        <ele>823</ele>
        <time>2015-03-27T11:19:20Z</time>
      </trkpt>
      <trkpt lat="46.60112" lon="5.86169">
        <ele>823</ele>
        <time>2015-03-27T11:19:45Z</time>
      </trkpt>
      <trkpt lat="46.60113" lon="5.86173">
        <ele>823</ele>
        <time>2015-03-27T11:20:12Z</time>
      </trkpt>
      <trkpt lat="46.60109" lon="5.86175">
        <ele>823</ele>
        <time>2015-03-27T11:20:26Z</time>
      </trkpt>
      <trkpt lat="46.60108" lon="5.86177">
        <ele>827</ele>
        <time>2015-03-27T11:23:14Z</time>
      </trkpt>
      <trkpt lat="46.6011" lon="5.8617">
        <ele>826</ele>
        <time>2015-03-27T11:34:54Z</time>
      </trkpt>
      <trkpt lat="46.60087" lon="5.86185">
        <ele>822</ele>
        <time>2015-03-27T11:58:57Z</time>
      </trkpt>
      <trkpt lat="46.60085" lon="5.86192">
        <ele>822</ele>
        <time>2015-03-27T11:59:02Z</time>
      </trkpt>
      <trkpt lat="46.60082" lon="5.86196">
        <ele>823</ele>
        <time>2015-03-27T11:59:08Z</time>
      </trkpt>
      <trkpt lat="46.60071" lon="5.86199">
        <ele>825</ele>
        <time>2015-03-27T11:59:17Z</time>
      </trkpt>
      <trkpt lat="46.60063" lon="5.86205">
        <ele>825</ele>
        <time>2015-03-27T11:59:26Z</time>
      </trkpt>
      <trkpt lat="46.60065" lon="5.86211">
        <ele>824</ele>
        <time>2015-03-27T11:59:31Z</time>
      </trkpt>
      <trkpt lat="46.60064" lon="5.86217">
        <ele>823</ele>
        <time>2015-03-27T11:59:37Z</time>
      </trkpt>
      <trkpt lat="46.60061" lon="5.86223">
        <ele>823</ele>
        <time>2015-03-27T11:59:41Z</time>
      </trkpt>
      <trkpt lat="46.60056" lon="5.86224">
        <ele>822</ele>
        <time>2015-03-27T11:59:45Z</time>
      </trkpt>
      <trkpt lat="46.60046" lon="5.86226">
        <ele>821</ele>
        <time>2015-03-27T11:59:55Z</time>
      </trkpt>
      <trkpt lat="46.60011" lon="5.86219">
        <ele>818</ele>
        <time>2015-03-27T12:00:25Z</time>
      </trkpt>
      <trkpt lat="46.60002" lon="5.86214">
        <ele>817</ele>
        <time>2015-03-27T12:00:32Z</time>
      </trkpt>
      <trkpt lat="46.59992" lon="5.86209">
        <ele>814</ele>
        <time>2015-03-27T12:00:40Z</time>
      </trkpt>
      <trkpt lat="46.59961" lon="5.86184">
        <ele>809</ele>
        <time>2015-03-27T12:01:13Z</time>
      </trkpt>
      <trkpt lat="46.59956" lon="5.8618">
        <ele>808</ele>
        <time>2015-03-27T12:01:18Z</time>
      </trkpt>
      <trkpt lat="46.59951" lon="5.86178">
        <ele>808</ele>
        <time>2015-03-27T12:01:23Z</time>
      </trkpt>
      <trkpt lat="46.59947" lon="5.86173">
        <ele>808</ele>
        <time>2015-03-27T12:01:28Z</time>
      </trkpt>
      <trkpt lat="46.59943" lon="5.86169">
        <ele>808</ele>
        <time>2015-03-27T12:01:32Z</time>
      </trkpt>
      <trkpt lat="46.59941" lon="5.86163">
        <ele>809</ele>
        <time>2015-03-27T12:01:36Z</time>
      </trkpt>
      <trkpt lat="46.59934" lon="5.86145">
        <ele>810</ele>
        <time>2015-03-27T12:01:47Z</time>
      </trkpt>
      <trkpt lat="46.59931" lon="5.86139">
        <ele>809</ele>
        <time>2015-03-27T12:01:51Z</time>
      </trkpt>
      <trkpt lat="46.59918" lon="5.86115">
        <ele>810</ele>
        <time>2015-03-27T12:02:09Z</time>
      </trkpt>
      <trkpt lat="46.59915" lon="5.86109">
        <ele>810</ele>
        <time>2015-03-27T12:02:15Z</time>
      </trkpt>
      <trkpt lat="46.59914" lon="5.86089">
        <ele>809</ele>
        <time>2015-03-27T12:02:28Z</time>
      </trkpt>
      <trkpt lat="46.59916" lon="5.86082">
        <ele>809</ele>
        <time>2015-03-27T12:02:33Z</time>
      </trkpt>
      <trkpt lat="46.59917" lon="5.86075">
        <ele>808</ele>
        <time>2015-03-27T12:02:40Z</time>
      </trkpt>
      <trkpt lat="46.59913" lon="5.86061">
        <ele>808</ele>
        <time>2015-03-27T12:02:47Z</time>
      </trkpt>
      <trkpt lat="46.59918" lon="5.85996">
        <ele>805</ele>
        <time>2015-03-27T12:03:24Z</time>
      </trkpt>
      <trkpt lat="46.59929" lon="5.85972">
        <ele>804</ele>
        <time>2015-03-27T12:03:40Z</time>
      </trkpt>
      <trkpt lat="46.59944" lon="5.85953">
        <ele>804</ele>
        <time>2015-03-27T12:03:56Z</time>
      </trkpt>
      <trkpt lat="46.59943" lon="5.85939">
        <ele>804</ele>
        <time>2015-03-27T12:04:04Z</time>
      </trkpt>
      <trkpt lat="46.59953" lon="5.85915">
        <ele>803</ele>
        <time>2015-03-27T12:04:16Z</time>
      </trkpt>
      <trkpt lat="46.5996" lon="5.85906">
        <ele>802</ele>
        <time>2015-03-27T12:04:25Z</time>
      </trkpt>
      <trkpt lat="46.59965" lon="5.85848">
        <ele>798</ele>
        <time>2015-03-27T12:04:57Z</time>
      </trkpt>
      <trkpt lat="46.59972" lon="5.85821">
        <ele>797</ele>
        <time>2015-03-27T12:05:13Z</time>
      </trkpt>
      <trkpt lat="46.5998" lon="5.85813">
        <ele>797</ele>
        <time>2015-03-27T12:05:20Z</time>
      </trkpt>
      <trkpt lat="46.59997" lon="5.85768">
        <ele>793</ele>
        <time>2015-03-27T12:05:51Z</time>
      </trkpt>
      <trkpt lat="46.59999" lon="5.85762">
        <ele>793</ele>
        <time>2015-03-27T12:05:55Z</time>
      </trkpt>
      <trkpt lat="46.59999" lon="5.85755">
        <ele>792</ele>
        <time>2015-03-27T12:06:00Z</time>
      </trkpt>
      <trkpt lat="46.60002" lon="5.85749">
        <ele>791</ele>
        <time>2015-03-27T12:06:06Z</time>
      </trkpt>
      <trkpt lat="46.60006" lon="5.85745">
        <ele>789</ele>
        <time>2015-03-27T12:06:13Z</time>
      </trkpt>
      <trkpt lat="46.60018" lon="5.85731">
        <ele>787</ele>
        <time>2015-03-27T12:06:24Z</time>
      </trkpt>
      <trkpt lat="46.60024" lon="5.85712">
        <ele>786</ele>
        <time>2015-03-27T12:06:37Z</time>
      </trkpt>
      <trkpt lat="46.60029" lon="5.85643">
        <ele>786</ele>
        <time>2015-03-27T12:07:12Z</time>
      </trkpt>
      <trkpt lat="46.60027" lon="5.85622">
        <ele>785</ele>
        <time>2015-03-27T12:07:33Z</time>
      </trkpt>
      <trkpt lat="46.60027" lon="5.85593">
        <ele>784</ele>
        <time>2015-03-27T12:07:43Z</time>
      </trkpt>
      <trkpt lat="46.60038" lon="5.85568">
        <ele>784</ele>
        <time>2015-03-27T12:07:57Z</time>
      </trkpt>
      <trkpt lat="46.60039" lon="5.85554">
        <ele>784</ele>
        <time>2015-03-27T12:08:04Z</time>
      </trkpt>
      <trkpt lat="46.6004" lon="5.85525">
        <ele>782</ele>
        <time>2015-03-27T12:08:19Z</time>
      </trkpt>
      <trkpt lat="46.60043" lon="5.85512">
        <ele>783</ele>
        <time>2015-03-27T12:08:28Z</time>
      </trkpt>
      <trkpt lat="46.60053" lon="5.85507">
        <ele>782</ele>
        <time>2015-03-27T12:08:45Z</time>
      </trkpt>
      <trkpt lat="46.60072" lon="5.85507">
        <ele>780</ele>
        <time>2015-03-27T12:08:58Z</time>
      </trkpt>
      <trkpt lat="46.60081" lon="5.85505">
        <ele>781</ele>
        <time>2015-03-27T12:09:04Z</time>
      </trkpt>
      <trkpt lat="46.60108" lon="5.85496">
        <ele>781</ele>
        <time>2015-03-27T12:09:26Z</time>
      </trkpt>
      <trkpt lat="46.60117" lon="5.85493">
        <ele>782</ele>
        <time>2015-03-27T12:09:36Z</time>
      </trkpt>
      <trkpt lat="46.60145" lon="5.85485">
        <ele>783</ele>
        <time>2015-03-27T12:09:57Z</time>
      </trkpt>
      <trkpt lat="46.60154" lon="5.8548">
        <ele>780</ele>
        <time>2015-03-27T12:10:10Z</time>
      </trkpt>
      <trkpt lat="46.60193" lon="5.85484">
        <ele>776</ele>
        <time>2015-03-27T12:10:44Z</time>
      </trkpt>
      <trkpt lat="46.60204" lon="5.85487">
        <ele>773</ele>
        <time>2015-03-27T12:10:54Z</time>
      </trkpt>
      <trkpt lat="46.60209" lon="5.85489">
        <ele>773</ele>
        <time>2015-03-27T12:10:58Z</time>
      </trkpt>
      <trkpt lat="46.60214" lon="5.85491">
        <ele>773</ele>
        <time>2015-03-27T12:11:05Z</time>
      </trkpt>
      <trkpt lat="46.60219" lon="5.85495">
        <ele>772</ele>
        <time>2015-03-27T12:11:11Z</time>
      </trkpt>
      <trkpt lat="46.60232" lon="5.855">
        <ele>772</ele>
        <time>2015-03-27T12:11:19Z</time>
      </trkpt>
      <trkpt lat="46.6024" lon="5.85503">
        <ele>773</ele>
        <time>2015-03-27T12:11:25Z</time>
      </trkpt>
      <trkpt lat="46.60268" lon="5.85526">
        <ele>773</ele>
        <time>2015-03-27T12:11:50Z</time>
      </trkpt>
      <trkpt lat="46.60273" lon="5.85529">
        <ele>773</ele>
        <time>2015-03-27T12:11:54Z</time>
      </trkpt>
      <trkpt lat="46.60278" lon="5.85529">
        <ele>773</ele>
        <time>2015-03-27T12:11:57Z</time>
      </trkpt>
      <trkpt lat="46.60283" lon="5.85528">
        <ele>772</ele>
        <time>2015-03-27T12:12:01Z</time>
      </trkpt>
      <trkpt lat="46.60292" lon="5.85521">
        <ele>772</ele>
        <time>2015-03-27T12:12:09Z</time>
      </trkpt>
      <trkpt lat="46.603" lon="5.85513">
        <ele>772</ele>
        <time>2015-03-27T12:12:20Z</time>
      </trkpt>
      <trkpt lat="46.60339" lon="5.85509">
        <ele>772</ele>
        <time>2015-03-27T12:12:50Z</time>
      </trkpt>
      <trkpt lat="46.60348" lon="5.85513">
        <ele>772</ele>
        <time>2015-03-27T12:12:59Z</time>
      </trkpt>
      <trkpt lat="46.60366" lon="5.85524">
        <ele>774</ele>
        <time>2015-03-27T12:13:20Z</time>
      </trkpt>
      <trkpt lat="46.60375" lon="5.8553">
        <ele>776</ele>
        <time>2015-03-27T12:13:30Z</time>
      </trkpt>
      <trkpt lat="46.60383" lon="5.85539">
        <ele>777</ele>
        <time>2015-03-27T12:13:38Z</time>
      </trkpt>
      <trkpt lat="46.60419" lon="5.85552">
        <ele>782</ele>
        <time>2015-03-27T12:14:12Z</time>
      </trkpt>
      <trkpt lat="46.60428" lon="5.85554">
        <ele>784</ele>
        <time>2015-03-27T12:14:21Z</time>
      </trkpt>
      <trkpt lat="46.60454" lon="5.85574">
        <ele>784</ele>
        <time>2015-03-27T12:14:45Z</time>
      </trkpt>
      <trkpt lat="46.60479" lon="5.85593">
        <ele>782</ele>
        <time>2015-03-27T12:15:15Z</time>
      </trkpt>
      <trkpt lat="46.60489" lon="5.85596">
        <ele>782</ele>
        <time>2015-03-27T12:15:23Z</time>
      </trkpt>
      <trkpt lat="46.60496" lon="5.85599">
        <ele>782</ele>
        <time>2015-03-27T12:15:31Z</time>
      </trkpt>
      <trkpt lat="46.60501" lon="5.85601">
        <ele>781</ele>
        <time>2015-03-27T12:15:35Z</time>
      </trkpt>
      <trkpt lat="46.60522" lon="5.85605">
        <ele>785</ele>
        <time>2015-03-27T12:15:54Z</time>
      </trkpt>
      <trkpt lat="46.60533" lon="5.85605">
        <ele>784</ele>
        <time>2015-03-27T12:16:03Z</time>
      </trkpt>
      <trkpt lat="46.60535" lon="5.85605">
        <ele>785</ele>
        <time>2015-03-27T12:16:09Z</time>
      </trkpt>
      <trkpt lat="46.60536" lon="5.85598">
        <ele>784</ele>
        <time>2015-03-27T12:16:24Z</time>
      </trkpt>
      <trkpt lat="46.60542" lon="5.85603">
        <ele>782</ele>
        <time>2015-03-27T12:18:32Z</time>
      </trkpt>
      <trkpt lat="46.60551" lon="5.85606">
        <ele>782</ele>
        <time>2015-03-27T12:18:41Z</time>
      </trkpt>
      <trkpt lat="46.60578" lon="5.85616">
        <ele>788</ele>
        <time>2015-03-27T12:19:08Z</time>
      </trkpt>
      <trkpt lat="46.60588" lon="5.8562">
        <ele>789</ele>
        <time>2015-03-27T12:19:18Z</time>
      </trkpt>
      <trkpt lat="46.60625" lon="5.85627">
        <ele>788</ele>
        <time>2015-03-27T12:19:48Z</time>
      </trkpt>
      <trkpt lat="46.60635" lon="5.85628">
        <ele>787</ele>
        <time>2015-03-27T12:19:56Z</time>
      </trkpt>
      <trkpt lat="46.60645" lon="5.85629">
        <ele>786</ele>
        <time>2015-03-27T12:20:06Z</time>
      </trkpt>
      <trkpt lat="46.60662" lon="5.85636">
        <ele>786</ele>
        <time>2015-03-27T12:20:23Z</time>
      </trkpt>
      <trkpt lat="46.60699" lon="5.85631">
        <ele>790</ele>
        <time>2015-03-27T12:20:55Z</time>
      </trkpt>
      <trkpt lat="46.60727" lon="5.85627">
        <ele>792</ele>
        <time>2015-03-27T12:21:16Z</time>
      </trkpt>
      <trkpt lat="46.60746" lon="5.85622">
        <ele>792</ele>
        <time>2015-03-27T12:21:32Z</time>
      </trkpt>
      <trkpt lat="46.60783" lon="5.85613">
        <ele>794</ele>
        <time>2015-03-27T12:22:05Z</time>
      </trkpt>
      <trkpt lat="46.60791" lon="5.85606">
        <ele>796</ele>
        <time>2015-03-27T12:22:14Z</time>
      </trkpt>
      <trkpt lat="46.60819" lon="5.85595">
        <ele>795</ele>
        <time>2015-03-27T12:22:41Z</time>
      </trkpt>
      <trkpt lat="46.60857" lon="5.85591">
        <ele>799</ele>
        <time>2015-03-27T12:23:12Z</time>
      </trkpt>
      <trkpt lat="46.60887" lon="5.8559">
        <ele>800</ele>
        <time>2015-03-27T12:23:43Z</time>
      </trkpt>
      <trkpt lat="46.60892" lon="5.85594">
        <ele>799</ele>
        <time>2015-03-27T12:26:40Z</time>
      </trkpt>
      <trkpt lat="46.60894" lon="5.85587">
        <ele>799</ele>
        <time>2015-03-27T12:27:42Z</time>
      </trkpt>
      <trkpt lat="46.60896" lon="5.85589">
        <ele>800</ele>
        <time>2015-03-27T12:28:22Z</time>
      </trkpt>
      <trkpt lat="46.60914" lon="5.85608">
        <ele>803</ele>
        <time>2015-03-27T12:31:05Z</time>
      </trkpt>
      <trkpt lat="46.60918" lon="5.85608">
        <ele>803</ele>
        <time>2015-03-27T12:31:08Z</time>
      </trkpt>
      <trkpt lat="46.60937" lon="5.85621">
        <ele>800</ele>
        <time>2015-03-27T12:31:29Z</time>
      </trkpt>
      <trkpt lat="46.60946" lon="5.85625">
        <ele>799</ele>
        <time>2015-03-27T12:31:37Z</time>
      </trkpt>
      <trkpt lat="46.60959" lon="5.85637">
        <ele>801</ele>
        <time>2015-03-27T12:31:50Z</time>
      </trkpt>
      <trkpt lat="46.60968" lon="5.85643">
        <ele>801</ele>
        <time>2015-03-27T12:31:59Z</time>
      </trkpt>
      <trkpt lat="46.61002" lon="5.85671">
        <ele>800</ele>
        <time>2015-03-27T12:32:36Z</time>
      </trkpt>
      <trkpt lat="46.61032" lon="5.85703">
        <ele>799</ele>
        <time>2015-03-27T12:33:09Z</time>
      </trkpt>
      <trkpt lat="46.61041" lon="5.85711">
        <ele>799</ele>
        <time>2015-03-27T12:33:19Z</time>
      </trkpt>
      <trkpt lat="46.61063" lon="5.85734">
        <ele>798</ele>
        <time>2015-03-27T12:33:46Z</time>
      </trkpt>
      <trkpt lat="46.61071" lon="5.85742">
        <ele>796</ele>
        <time>2015-03-27T12:33:55Z</time>
      </trkpt>
      <trkpt lat="46.6108" lon="5.85746">
        <ele>795</ele>
        <time>2015-03-27T12:34:02Z</time>
      </trkpt>
      <trkpt lat="46.61111" lon="5.85779">
        <ele>795</ele>
        <time>2015-03-27T12:34:31Z</time>
      </trkpt>
      <trkpt lat="46.61131" lon="5.8581">
        <ele>795</ele>
        <time>2015-03-27T12:34:54Z</time>
      </trkpt>
      <trkpt lat="46.61132" lon="5.85823">
        <ele>794</ele>
        <time>2015-03-27T12:35:02Z</time>
      </trkpt>
      <trkpt lat="46.6114" lon="5.85831">
        <ele>793</ele>
        <time>2015-03-27T12:35:11Z</time>
      </trkpt>
      <trkpt lat="46.61149" lon="5.85837">
        <ele>793</ele>
        <time>2015-03-27T12:35:19Z</time>
      </trkpt>
      <trkpt lat="46.61167" lon="5.85867">
        <ele>795</ele>
        <time>2015-03-27T12:35:43Z</time>
      </trkpt>
      <trkpt lat="46.61175" lon="5.8592">
        <ele>786</ele>
        <time>2015-03-27T12:36:15Z</time>
      </trkpt>
      <trkpt lat="46.61174" lon="5.85935">
        <ele>785</ele>
        <time>2015-03-27T12:36:24Z</time>
      </trkpt>
      <trkpt lat="46.61179" lon="5.85943">
        <ele>785</ele>
        <time>2015-03-27T12:36:30Z</time>
      </trkpt>
      <trkpt lat="46.61182" lon="5.85949">
        <ele>785</ele>
        <time>2015-03-27T12:36:34Z</time>
      </trkpt>
      <trkpt lat="46.61183" lon="5.85958">
        <ele>785</ele>
        <time>2015-03-27T12:36:39Z</time>
      </trkpt>
      <trkpt lat="46.61185" lon="5.85966">
        <ele>786</ele>
        <time>2015-03-27T12:36:43Z</time>
      </trkpt>
      <trkpt lat="46.61191" lon="5.85979">
        <ele>785</ele>
        <time>2015-03-27T12:36:51Z</time>
      </trkpt>
      <trkpt lat="46.61204" lon="5.85999">
        <ele>786</ele>
        <time>2015-03-27T12:37:06Z</time>
      </trkpt>
      <trkpt lat="46.61213" lon="5.86011">
        <ele>786</ele>
        <time>2015-03-27T12:37:16Z</time>
      </trkpt>
      <trkpt lat="46.61214" lon="5.86018">
        <ele>786</ele>
        <time>2015-03-27T12:37:20Z</time>
      </trkpt>
      <trkpt lat="46.61218" lon="5.86023">
        <ele>785</ele>
        <time>2015-03-27T12:37:24Z</time>
      </trkpt>
      <trkpt lat="46.61226" lon="5.86033">
        <ele>787</ele>
        <time>2015-03-27T12:37:34Z</time>
      </trkpt>
      <trkpt lat="46.61229" lon="5.8604">
        <ele>786</ele>
        <time>2015-03-27T12:37:39Z</time>
      </trkpt>
      <trkpt lat="46.61253" lon="5.86086">
        <ele>782</ele>
        <time>2015-03-27T12:38:15Z</time>
      </trkpt>
      <trkpt lat="46.61276" lon="5.86131">
        <ele>776</ele>
        <time>2015-03-27T12:38:50Z</time>
      </trkpt>
      <trkpt lat="46.61278" lon="5.86143">
        <ele>775</ele>
        <time>2015-03-27T12:38:57Z</time>
      </trkpt>
      <trkpt lat="46.61285" lon="5.86184">
        <ele>775</ele>
        <time>2015-03-27T12:39:23Z</time>
      </trkpt>
      <trkpt lat="46.61286" lon="5.86197">
        <ele>774</ele>
        <time>2015-03-27T12:39:31Z</time>
      </trkpt>
      <trkpt lat="46.61293" lon="5.86249">
        <ele>768</ele>
        <time>2015-03-27T12:40:02Z</time>
      </trkpt>
      <trkpt lat="46.61303" lon="5.86303">
        <ele>763</ele>
        <time>2015-03-27T12:40:38Z</time>
      </trkpt>
      <trkpt lat="46.61312" lon="5.86372">
        <ele>755</ele>
        <time>2015-03-27T12:41:17Z</time>
      </trkpt>
      <trkpt lat="46.61311" lon="5.86387">
        <ele>754</ele>
        <time>2015-03-27T12:41:26Z</time>
      </trkpt>
      <trkpt lat="46.61316" lon="5.86398">
        <ele>752</ele>
        <time>2015-03-27T12:41:34Z</time>
      </trkpt>
      <trkpt lat="46.61317" lon="5.86412">
        <ele>752</ele>
        <time>2015-03-27T12:41:41Z</time>
      </trkpt>
      <trkpt lat="46.61322" lon="5.86424">
        <ele>751</ele>
        <time>2015-03-27T12:41:49Z</time>
      </trkpt>
      <trkpt lat="46.61321" lon="5.86438">
        <ele>751</ele>
        <time>2015-03-27T12:41:57Z</time>
      </trkpt>
      <trkpt lat="46.6132" lon="5.86452">
        <ele>750</ele>
        <time>2015-03-27T12:42:05Z</time>
      </trkpt>
      <trkpt lat="46.61323" lon="5.86465">
        <ele>749</ele>
        <time>2015-03-27T12:42:13Z</time>
      </trkpt>
      <trkpt lat="46.61326" lon="5.86491">
        <ele>749</ele>
        <time>2015-03-27T12:42:25Z</time>
      </trkpt>
      <trkpt lat="46.61333" lon="5.86517">
        <ele>747</ele>
        <time>2015-03-27T12:42:43Z</time>
      </trkpt>
      <trkpt lat="46.61332" lon="5.86532">
        <ele>746</ele>
        <time>2015-03-27T12:42:51Z</time>
      </trkpt>
      <trkpt lat="46.61346" lon="5.86583">
        <ele>743</ele>
        <time>2015-03-27T12:43:22Z</time>
      </trkpt>
      <trkpt lat="46.61349" lon="5.86597">
        <ele>742</ele>
        <time>2015-03-27T12:43:28Z</time>
      </trkpt>
      <trkpt lat="46.61363" lon="5.86615">
        <ele>743</ele>
        <time>2015-03-27T12:43:42Z</time>
      </trkpt>
      <trkpt lat="46.61364" lon="5.86656">
        <ele>740</ele>
        <time>2015-03-27T12:44:13Z</time>
      </trkpt>
      <trkpt lat="46.61368" lon="5.86684">
        <ele>740</ele>
        <time>2015-03-27T12:44:29Z</time>
      </trkpt>
      <trkpt lat="46.61375" lon="5.86725">
        <ele>738</ele>
        <time>2015-03-27T12:44:53Z</time>
      </trkpt>
      <trkpt lat="46.61361" lon="5.86791">
        <ele>730</ele>
        <time>2015-03-27T12:45:31Z</time>
      </trkpt>
      <trkpt lat="46.61361" lon="5.86804">
        <ele>729</ele>
        <time>2015-03-27T12:45:39Z</time>
      </trkpt>
      <trkpt lat="46.61369" lon="5.86813">
        <ele>727</ele>
        <time>2015-03-27T12:45:50Z</time>
      </trkpt>
      <trkpt lat="46.61397" lon="5.86847">
        <ele>721</ele>
        <time>2015-03-27T12:46:27Z</time>
      </trkpt>
      <trkpt lat="46.61399" lon="5.8686">
        <ele>718</ele>
        <time>2015-03-27T12:46:41Z</time>
      </trkpt>
      <trkpt lat="46.61407" lon="5.86867">
        <ele>715</ele>
        <time>2015-03-27T12:46:53Z</time>
      </trkpt>
      <trkpt lat="46.61415" lon="5.86873">
        <ele>712</ele>
        <time>2015-03-27T12:47:06Z</time>
      </trkpt>
      <trkpt lat="46.61419" lon="5.86879">
        <ele>711</ele>
        <time>2015-03-27T12:47:12Z</time>
      </trkpt>
      <trkpt lat="46.61411" lon="5.86879">
        <ele>705</ele>
        <time>2015-03-27T12:49:22Z</time>
      </trkpt>
      <trkpt lat="46.61405" lon="5.86867">
        <ele>704</ele>
        <time>2015-03-27T12:49:38Z</time>
      </trkpt>
      <trkpt lat="46.61399" lon="5.86858">
        <ele>705</ele>
        <time>2015-03-27T12:50:07Z</time>
      </trkpt>
      <trkpt lat="46.61398" lon="5.86851">
        <ele>705</ele>
        <time>2015-03-27T12:50:26Z</time>
      </trkpt>
      <trkpt lat="46.61406" lon="5.86844">
        <ele>704</ele>
        <time>2015-03-27T12:50:37Z</time>
      </trkpt>
      <trkpt lat="46.61408" lon="5.86829">
        <ele>700</ele>
        <time>2015-03-27T12:51:02Z</time>
      </trkpt>
      <trkpt lat="46.61426" lon="5.86799">
        <ele>699</ele>
        <time>2015-03-27T12:51:39Z</time>
      </trkpt>
      <trkpt lat="46.61435" lon="5.86804">
        <ele>698</ele>
        <time>2015-03-27T12:51:48Z</time>
      </trkpt>
      <trkpt lat="46.61444" lon="5.86804">
        <ele>698</ele>
        <time>2015-03-27T12:52:05Z</time>
      </trkpt>
      <trkpt lat="46.61438" lon="5.86789">
        <ele>698</ele>
        <time>2015-03-27T12:52:18Z</time>
      </trkpt>
      <trkpt lat="46.61444" lon="5.8675">
        <ele>693</ele>
        <time>2015-03-27T12:52:58Z</time>
      </trkpt>
      <trkpt lat="46.61444" lon="5.86736">
        <ele>691</ele>
        <time>2015-03-27T12:53:10Z</time>
      </trkpt>
      <trkpt lat="46.61449" lon="5.86725">
        <ele>691</ele>
        <time>2015-03-27T12:53:16Z</time>
      </trkpt>
      <trkpt lat="46.61451" lon="5.86711">
        <ele>691</ele>
        <time>2015-03-27T12:53:30Z</time>
      </trkpt>
      <trkpt lat="46.61457" lon="5.86699">
        <ele>695</ele>
        <time>2015-03-27T12:54:05Z</time>
      </trkpt>
      <trkpt lat="46.61474" lon="5.86686">
        <ele>694</ele>
        <time>2015-03-27T12:54:21Z</time>
      </trkpt>
      <trkpt lat="46.61481" lon="5.86678">
        <ele>692</ele>
        <time>2015-03-27T12:54:33Z</time>
      </trkpt>
      <trkpt lat="46.61493" lon="5.86674">
        <ele>692</ele>
        <time>2015-03-27T12:54:51Z</time>
      </trkpt>
      <trkpt lat="46.61502" lon="5.8668">
        <ele>692</ele>
        <time>2015-03-27T12:55:01Z</time>
      </trkpt>
      <trkpt lat="46.61522" lon="5.86679">
        <ele>692</ele>
        <time>2015-03-27T12:55:22Z</time>
      </trkpt>
      <trkpt lat="46.61527" lon="5.86684">
        <ele>692</ele>
        <time>2015-03-27T12:55:38Z</time>
      </trkpt>
      <trkpt lat="46.61535" lon="5.86689">
        <ele>693</ele>
        <time>2015-03-27T12:55:46Z</time>
      </trkpt>
      <trkpt lat="46.61543" lon="5.8669">
        <ele>693</ele>
        <time>2015-03-27T12:55:56Z</time>
      </trkpt>
      <trkpt lat="46.6154" lon="5.86687">
        <ele>693</ele>
        <time>2015-03-27T12:56:28Z</time>
      </trkpt>
      <trkpt lat="46.61535" lon="5.86683">
        <ele>694</ele>
        <time>2015-03-27T12:56:49Z</time>
      </trkpt>
      <trkpt lat="46.61537" lon="5.86685">
        <ele>694</ele>
        <time>2015-03-27T12:57:28Z</time>
      </trkpt>
      <trkpt lat="46.61546" lon="5.86697">
        <ele>693</ele>
        <time>2015-03-27T12:57:50Z</time>
      </trkpt>
      <trkpt lat="46.61563" lon="5.86718">
        <ele>696</ele>
        <time>2015-03-27T12:58:30Z</time>
      </trkpt>
      <trkpt lat="46.61572" lon="5.86716">
        <ele>697</ele>
        <time>2015-03-27T12:58:43Z</time>
      </trkpt>
      <trkpt lat="46.61578" lon="5.86704">
        <ele>698</ele>
        <time>2015-03-27T12:58:58Z</time>
      </trkpt>
      <trkpt lat="46.6158" lon="5.8669">
        <ele>701</ele>
        <time>2015-03-27T12:59:08Z</time>
      </trkpt>
      <trkpt lat="46.61589" lon="5.86686">
        <ele>701</ele>
        <time>2015-03-27T12:59:19Z</time>
      </trkpt>
      <trkpt lat="46.6161" lon="5.86659">
        <ele>705</ele>
        <time>2015-03-27T12:59:56Z</time>
      </trkpt>
      <trkpt lat="46.6162" lon="5.86647">
        <ele>707</ele>
        <time>2015-03-27T13:00:13Z</time>
      </trkpt>
      <trkpt lat="46.61626" lon="5.86622">
        <ele>707</ele>
        <time>2015-03-27T13:00:35Z</time>
      </trkpt>
      <trkpt lat="46.6163" lon="5.86609">
        <ele>707</ele>
        <time>2015-03-27T13:00:49Z</time>
      </trkpt>
      <trkpt lat="46.61637" lon="5.86598">
        <ele>707</ele>
        <time>2015-03-27T13:01:04Z</time>
      </trkpt>
      <trkpt lat="46.61644" lon="5.86589">
        <ele>707</ele>
        <time>2015-03-27T13:01:16Z</time>
      </trkpt>
      <trkpt lat="46.61646" lon="5.86563">
        <ele>712</ele>
        <time>2015-03-27T13:01:40Z</time>
      </trkpt>
      <trkpt lat="46.61666" lon="5.86535">
        <ele>717</ele>
        <time>2015-03-27T13:02:16Z</time>
      </trkpt>
      <trkpt lat="46.61675" lon="5.86528">
        <ele>717</ele>
        <time>2015-03-27T13:02:27Z</time>
      </trkpt>
      <trkpt lat="46.61681" lon="5.86517">
        <ele>719</ele>
        <time>2015-03-27T13:02:37Z</time>
      </trkpt>
      <trkpt lat="46.61687" lon="5.86463">
        <ele>729</ele>
        <time>2015-03-27T13:03:18Z</time>
      </trkpt>
      <trkpt lat="46.61686" lon="5.86423">
        <ele>735</ele>
        <time>2015-03-27T13:03:54Z</time>
      </trkpt>
      <trkpt lat="46.61696" lon="5.86384">
        <ele>738</ele>
        <time>2015-03-27T13:04:32Z</time>
      </trkpt>
      <trkpt lat="46.61697" lon="5.86371">
        <ele>737</ele>
        <time>2015-03-27T13:04:42Z</time>
      </trkpt>
      <trkpt lat="46.61702" lon="5.86359">
        <ele>738</ele>
        <time>2015-03-27T13:04:53Z</time>
      </trkpt>
      <trkpt lat="46.61709" lon="5.86321">
        <ele>743</ele>
        <time>2015-03-27T13:05:25Z</time>
      </trkpt>
      <trkpt lat="46.61709" lon="5.86292">
        <ele>744</ele>
        <time>2015-03-27T13:05:46Z</time>
      </trkpt>
      <trkpt lat="46.61712" lon="5.86238">
        <ele>750</ele>
        <time>2015-03-27T13:06:24Z</time>
      </trkpt>
      <trkpt lat="46.6171" lon="5.862">
        <ele>755</ele>
        <time>2015-03-27T13:07:05Z</time>
      </trkpt>
      <trkpt lat="46.61723" lon="5.86192">
        <ele>758</ele>
        <time>2015-03-27T13:07:51Z</time>
      </trkpt>
      <trkpt lat="46.6172" lon="5.8619">
        <ele>754</ele>
        <time>2015-03-27T13:10:03Z</time>
      </trkpt>
      <trkpt lat="46.6172" lon="5.86181">
        <ele>757</ele>
        <time>2015-03-27T13:11:16Z</time>
      </trkpt>
      <trkpt lat="46.61722" lon="5.86167">
        <ele>760</ele>
        <time>2015-03-27T13:11:28Z</time>
      </trkpt>
      <trkpt lat="46.61718" lon="5.86138">
        <ele>763</ele>
        <time>2015-03-27T13:11:46Z</time>
      </trkpt>
      <trkpt lat="46.61715" lon="5.86125">
        <ele>763</ele>
        <time>2015-03-27T13:11:57Z</time>
      </trkpt>
      <trkpt lat="46.61709" lon="5.86115">
        <ele>764</ele>
        <time>2015-03-27T13:12:06Z</time>
      </trkpt>
      <trkpt lat="46.617" lon="5.86119">
        <ele>765</ele>
        <time>2015-03-27T13:12:18Z</time>
      </trkpt>
      <trkpt lat="46.61692" lon="5.86124">
        <ele>766</ele>
        <time>2015-03-27T13:12:26Z</time>
      </trkpt>
      <trkpt lat="46.61686" lon="5.86117">
        <ele>766</ele>
        <time>2015-03-27T13:12:43Z</time>
      </trkpt>
      <trkpt lat="46.61675" lon="5.86115">
        <ele>767</ele>
        <time>2015-03-27T13:13:17Z</time>
      </trkpt>
      <trkpt lat="46.61665" lon="5.86121">
        <ele>766</ele>
        <time>2015-03-27T13:13:35Z</time>
      </trkpt>
      <trkpt lat="46.61669" lon="5.86134">
        <ele>765</ele>
        <time>2015-03-27T13:13:44Z</time>
      </trkpt>
      <trkpt lat="46.6166" lon="5.86141">
        <ele>762</ele>
        <time>2015-03-27T13:13:59Z</time>
      </trkpt>
      <trkpt lat="46.61655" lon="5.86138">
        <ele>758</ele>
        <time>2015-03-27T13:14:53Z</time>
      </trkpt>
      <trkpt lat="46.61649" lon="5.86152">
        <ele>753</ele>
        <time>2015-03-27T13:15:14Z</time>
      </trkpt>
      <trkpt lat="46.61634" lon="5.86174">
        <ele>747</ele>
        <time>2015-03-27T13:15:43Z</time>
      </trkpt>
      <trkpt lat="46.61624" lon="5.86176">
        <ele>745</ele>
        <time>2015-03-27T13:15:54Z</time>
      </trkpt>
      <trkpt lat="46.61617" lon="5.86186">
        <ele>744</ele>
        <time>2015-03-27T13:16:00Z</time>
      </trkpt>
      <trkpt lat="46.61608" lon="5.86183">
        <ele>743</ele>
        <time>2015-03-27T13:16:09Z</time>
      </trkpt>
      <trkpt lat="46.61603" lon="5.86171">
        <ele>741</ele>
        <time>2015-03-27T13:16:23Z</time>
      </trkpt>
      <trkpt lat="46.61596" lon="5.86145">
        <ele>740</ele>
        <time>2015-03-27T13:16:48Z</time>
      </trkpt>
      <trkpt lat="46.61597" lon="5.86132">
        <ele>739</ele>
        <time>2015-03-27T13:16:58Z</time>
      </trkpt>
      <trkpt lat="46.61596" lon="5.86119">
        <ele>738</ele>
        <time>2015-03-27T13:17:11Z</time>
      </trkpt>
      <trkpt lat="46.616" lon="5.86077">
        <ele>738</ele>
        <time>2015-03-27T13:17:45Z</time>
      </trkpt>
      <trkpt lat="46.61599" lon="5.86062">
        <ele>739</ele>
        <time>2015-03-27T13:17:55Z</time>
      </trkpt>
      <trkpt lat="46.61601" lon="5.86033">
        <ele>740</ele>
        <time>2015-03-27T13:18:16Z</time>
      </trkpt>
      <trkpt lat="46.61605" lon="5.86021">
        <ele>740</ele>
        <time>2015-03-27T13:18:26Z</time>
      </trkpt>
      <trkpt lat="46.61603" lon="5.85967">
        <ele>744</ele>
        <time>2015-03-27T13:19:04Z</time>
      </trkpt>
      <trkpt lat="46.61607" lon="5.85928">
        <ele>748</ele>
        <time>2015-03-27T13:19:38Z</time>
      </trkpt>
      <trkpt lat="46.6161" lon="5.85915">
        <ele>748</ele>
        <time>2015-03-27T13:19:49Z</time>
      </trkpt>
      <trkpt lat="46.61612" lon="5.85889">
        <ele>750</ele>
        <time>2015-03-27T13:20:07Z</time>
      </trkpt>
      <trkpt lat="46.61617" lon="5.85878">
        <ele>752</ele>
        <time>2015-03-27T13:20:16Z</time>
      </trkpt>
      <trkpt lat="46.61617" lon="5.85865">
        <ele>752</ele>
        <time>2015-03-27T13:20:26Z</time>
      </trkpt>
      <trkpt lat="46.6161" lon="5.85854">
        <ele>754</ele>
        <time>2015-03-27T13:20:38Z</time>
      </trkpt>
      <trkpt lat="46.61596" lon="5.85802">
        <ele>755</ele>
        <time>2015-03-27T13:21:14Z</time>
      </trkpt>
      <trkpt lat="46.61596" lon="5.85788">
        <ele>754</ele>
        <time>2015-03-27T13:21:25Z</time>
      </trkpt>
      <trkpt lat="46.616" lon="5.85765">
        <ele>753</ele>
        <time>2015-03-27T13:21:49Z</time>
      </trkpt>
      <trkpt lat="46.61602" lon="5.85754">
        <ele>750</ele>
        <time>2015-03-27T13:23:53Z</time>
      </trkpt>
      <trkpt lat="46.61597" lon="5.85743">
        <ele>750</ele>
        <time>2015-03-27T13:24:04Z</time>
      </trkpt>
      <trkpt lat="46.61597" lon="5.85729">
        <ele>752</ele>
        <time>2015-03-27T13:24:16Z</time>
      </trkpt>
      <trkpt lat="46.61603" lon="5.85689">
        <ele>754</ele>
        <time>2015-03-27T13:24:45Z</time>
      </trkpt>
      <trkpt lat="46.616" lon="5.85675">
        <ele>754</ele>
        <time>2015-03-27T13:24:56Z</time>
      </trkpt>
      <trkpt lat="46.61594" lon="5.8565">
        <ele>755</ele>
        <time>2015-03-27T13:25:17Z</time>
      </trkpt>
      <trkpt lat="46.61591" lon="5.85623">
        <ele>757</ele>
        <time>2015-03-27T13:25:44Z</time>
      </trkpt>
      <trkpt lat="46.61587" lon="5.8561">
        <ele>757</ele>
        <time>2015-03-27T13:25:55Z</time>
      </trkpt>
      <trkpt lat="46.61585" lon="5.85569">
        <ele>756</ele>
        <time>2015-03-27T13:26:26Z</time>
      </trkpt>
      <trkpt lat="46.61587" lon="5.85554">
        <ele>755</ele>
        <time>2015-03-27T13:26:34Z</time>
      </trkpt>
      <trkpt lat="46.61586" lon="5.85541">
        <ele>754</ele>
        <time>2015-03-27T13:26:49Z</time>
      </trkpt>
      <trkpt lat="46.6158" lon="5.85499">
        <ele>751</ele>
        <time>2015-03-27T13:27:24Z</time>
      </trkpt>
      <trkpt lat="46.61584" lon="5.85487">
        <ele>750</ele>
        <time>2015-03-27T13:27:39Z</time>
      </trkpt>
      <trkpt lat="46.61584" lon="5.85459">
        <ele>750</ele>
        <time>2015-03-27T13:28:10Z</time>
      </trkpt>
      <trkpt lat="46.61585" lon="5.85445">
        <ele>749</ele>
        <time>2015-03-27T13:28:20Z</time>
      </trkpt>
      <trkpt lat="46.61583" lon="5.85433">
        <ele>749</ele>
        <time>2015-03-27T13:28:32Z</time>
      </trkpt>
      <trkpt lat="46.61584" lon="5.85429">
        <ele>749</ele>
        <time>2015-03-27T13:30:15Z</time>
      </trkpt>
      <trkpt lat="46.6158" lon="5.85419">
        <ele>748</ele>
        <time>2015-03-27T13:30:40Z</time>
      </trkpt>
      <trkpt lat="46.6158" lon="5.85413">
        <ele>748</ele>
        <time>2015-03-27T13:30:59Z</time>
      </trkpt>
      <trkpt lat="46.61582" lon="5.85395">
        <ele>747</ele>
        <time>2015-03-27T13:31:15Z</time>
      </trkpt>
      <trkpt lat="46.61584" lon="5.85385">
        <ele>744</ele>
        <time>2015-03-27T13:31:47Z</time>
      </trkpt>
      <trkpt lat="46.61581" lon="5.85375">
        <ele>744</ele>
        <time>2015-03-27T13:31:51Z</time>
      </trkpt>
      <trkpt lat="46.61586" lon="5.85367">
        <ele>753</ele>
        <time>2015-03-27T13:32:38Z</time>
      </trkpt>
      <trkpt lat="46.61587" lon="5.85354">
        <ele>753</ele>
        <time>2015-03-27T13:32:51Z</time>
      </trkpt>
      <trkpt lat="46.61595" lon="5.85313">
        <ele>751</ele>
        <time>2015-03-27T13:33:27Z</time>
      </trkpt>
      <trkpt lat="46.61597" lon="5.853">
        <ele>751</ele>
        <time>2015-03-27T13:33:38Z</time>
      </trkpt>
      <trkpt lat="46.61606" lon="5.85291">
        <ele>750</ele>
        <time>2015-03-27T13:33:52Z</time>
      </trkpt>
      <trkpt lat="46.61628" lon="5.85268">
        <ele>750</ele>
        <time>2015-03-27T13:34:20Z</time>
      </trkpt>
      <trkpt lat="46.61628" lon="5.85261">
        <ele>751</ele>
        <time>2015-03-27T13:34:37Z</time>
      </trkpt>
      <trkpt lat="46.61625" lon="5.85256">
        <ele>753</ele>
        <time>2015-03-27T13:35:23Z</time>
      </trkpt>
      <trkpt lat="46.61623" lon="5.85243">
        <ele>754</ele>
        <time>2015-03-27T13:35:34Z</time>
      </trkpt>
      <trkpt lat="46.61621" lon="5.8523">
        <ele>756</ele>
        <time>2015-03-27T13:35:49Z</time>
      </trkpt>
      <trkpt lat="46.61624" lon="5.85224">
        <ele>756</ele>
        <time>2015-03-27T13:36:00Z</time>
      </trkpt>
      <trkpt lat="46.61615" lon="5.85215">
        <ele>755</ele>
        <time>2015-03-27T13:36:10Z</time>
      </trkpt>
      <trkpt lat="46.61606" lon="5.85211">
        <ele>752</ele>
        <time>2015-03-27T13:36:20Z</time>
      </trkpt>
      <trkpt lat="46.61572" lon="5.85187">
        <ele>749</ele>
        <time>2015-03-27T13:36:59Z</time>
      </trkpt>
      <trkpt lat="46.61551" lon="5.8518">
        <ele>743</ele>
        <time>2015-03-27T13:37:39Z</time>
      </trkpt>
      <trkpt lat="46.6155" lon="5.85183">
        <ele>737</ele>
        <time>2015-03-27T13:39:05Z</time>
      </trkpt>
      <trkpt lat="46.61553" lon="5.8518">
        <ele>738</ele>
        <time>2015-03-27T13:40:45Z</time>
      </trkpt>
      <trkpt lat="46.61556" lon="5.85181">
        <ele>739</ele>
        <time>2015-03-27T13:41:35Z</time>
      </trkpt>
      <trkpt lat="46.61559" lon="5.85183">
        <ele>739</ele>
        <time>2015-03-27T13:41:48Z</time>
      </trkpt>
      <trkpt lat="46.6156" lon="5.85186">
        <ele>739</ele>
        <time>2015-03-27T13:42:11Z</time>
      </trkpt>
      <trkpt lat="46.61552" lon="5.85189">
        <ele>738</ele>
        <time>2015-03-27T13:42:58Z</time>
      </trkpt>
      <trkpt lat="46.61551" lon="5.85185">
        <ele>737</ele>
        <time>2015-03-27T13:46:49Z</time>
      </trkpt>
      <trkpt lat="46.61557" lon="5.85176">
        <ele>735</ele>
        <time>2015-03-27T13:52:53Z</time>
      </trkpt>
      <trkpt lat="46.61581" lon="5.85192">
        <ele>734</ele>
        <time>2015-03-27T13:57:44Z</time>
      </trkpt>
      <trkpt lat="46.61586" lon="5.85194">
        <ele>734</ele>
        <time>2015-03-27T13:57:51Z</time>
      </trkpt>
      <trkpt lat="46.6159" lon="5.85197">
        <ele>734</ele>
        <time>2015-03-27T13:58:01Z</time>
      </trkpt>
      <trkpt lat="46.61599" lon="5.85202">
        <ele>735</ele>
        <time>2015-03-27T13:58:08Z</time>
      </trkpt>
      <trkpt lat="46.61616" lon="5.85213">
        <ele>738</ele>
        <time>2015-03-27T13:58:25Z</time>
      </trkpt>
      <trkpt lat="46.61624" lon="5.85206">
        <ele>740</ele>
        <time>2015-03-27T13:58:35Z</time>
      </trkpt>
      <trkpt lat="46.61637" lon="5.85186">
        <ele>742</ele>
        <time>2015-03-27T13:58:51Z</time>
      </trkpt>
      <trkpt lat="46.61646" lon="5.8518">
        <ele>742</ele>
        <time>2015-03-27T13:59:04Z</time>
      </trkpt>
      <trkpt lat="46.61651" lon="5.85169">
        <ele>743</ele>
        <time>2015-03-27T13:59:16Z</time>
      </trkpt>
      <trkpt lat="46.61672" lon="5.85144">
        <ele>745</ele>
        <time>2015-03-27T13:59:47Z</time>
      </trkpt>
      <trkpt lat="46.61692" lon="5.85115">
        <ele>745</ele>
        <time>2015-03-27T14:00:17Z</time>
      </trkpt>
      <trkpt lat="46.61699" lon="5.85104">
        <ele>745</ele>
        <time>2015-03-27T14:00:25Z</time>
      </trkpt>
      <trkpt lat="46.61705" lon="5.85094">
        <ele>745</ele>
        <time>2015-03-27T14:00:33Z</time>
      </trkpt>
      <trkpt lat="46.61738" lon="5.85068">
        <ele>742</ele>
        <time>2015-03-27T14:01:11Z</time>
      </trkpt>
      <trkpt lat="46.61748" lon="5.85065">
        <ele>742</ele>
        <time>2015-03-27T14:01:20Z</time>
      </trkpt>
      <trkpt lat="46.61764" lon="5.8505">
        <ele>743</ele>
        <time>2015-03-27T14:01:36Z</time>
      </trkpt>
      <trkpt lat="46.61782" lon="5.85045">
        <ele>743</ele>
        <time>2015-03-27T14:01:53Z</time>
      </trkpt>
      <trkpt lat="46.61798" lon="5.85031">
        <ele>742</ele>
        <time>2015-03-27T14:02:11Z</time>
      </trkpt>
      <trkpt lat="46.61807" lon="5.85024">
        <ele>743</ele>
        <time>2015-03-27T14:02:20Z</time>
      </trkpt>
      <trkpt lat="46.61826" lon="5.85018">
        <ele>743</ele>
        <time>2015-03-27T14:02:38Z</time>
      </trkpt>
      <trkpt lat="46.61844" lon="5.8501">
        <ele>741</ele>
        <time>2015-03-27T14:02:57Z</time>
      </trkpt>
      <trkpt lat="46.61869" lon="5.84995">
        <ele>742</ele>
        <time>2015-03-27T14:03:28Z</time>
      </trkpt>
      <trkpt lat="46.61904" lon="5.84974">
        <ele>742</ele>
        <time>2015-03-27T14:04:01Z</time>
      </trkpt>
      <trkpt lat="46.61922" lon="5.84959">
        <ele>743</ele>
        <time>2015-03-27T14:04:16Z</time>
      </trkpt>
      <trkpt lat="46.61938" lon="5.84924">
        <ele>747</ele>
        <time>2015-03-27T14:04:39Z</time>
      </trkpt>
      <trkpt lat="46.6194" lon="5.84896">
        <ele>747</ele>
        <time>2015-03-27T14:04:57Z</time>
      </trkpt>
      <trkpt lat="46.61941" lon="5.84899">
        <ele>744</ele>
        <time>2015-03-27T14:05:30Z</time>
      </trkpt>
      <trkpt lat="46.61938" lon="5.84912">
        <ele>743</ele>
        <time>2015-03-27T14:05:37Z</time>
      </trkpt>
      <trkpt lat="46.61934" lon="5.84925">
        <ele>741</ele>
        <time>2015-03-27T14:05:46Z</time>
      </trkpt>
      <trkpt lat="46.61928" lon="5.84949">
        <ele>742</ele>
        <time>2015-03-27T14:06:04Z</time>
      </trkpt>
      <trkpt lat="46.61924" lon="5.84961">
        <ele>743</ele>
        <time>2015-03-27T14:06:12Z</time>
      </trkpt>
      <trkpt lat="46.61917" lon="5.84971">
        <ele>744</ele>
        <time>2015-03-27T14:06:25Z</time>
      </trkpt>
      <trkpt lat="46.61908" lon="5.84977">
        <ele>744</ele>
        <time>2015-03-27T14:06:31Z</time>
      </trkpt>
      <trkpt lat="46.61899" lon="5.84978">
        <ele>746</ele>
        <time>2015-03-27T14:06:42Z</time>
      </trkpt>
      <trkpt lat="46.61881" lon="5.84985">
        <ele>745</ele>
        <time>2015-03-27T14:06:58Z</time>
      </trkpt>
      <trkpt lat="46.61884" lon="5.84978">
        <ele>745</ele>
        <time>2015-03-27T14:07:22Z</time>
      </trkpt>
      <trkpt lat="46.61884" lon="5.84965">
        <ele>745</ele>
        <time>2015-03-27T14:07:31Z</time>
      </trkpt>
      <trkpt lat="46.61879" lon="5.84957">
        <ele>744</ele>
        <time>2015-03-27T14:07:34Z</time>
      </trkpt>
      <trkpt lat="46.61875" lon="5.84945">
        <ele>743</ele>
        <time>2015-03-27T14:07:44Z</time>
      </trkpt>
      <trkpt lat="46.61872" lon="5.84905">
        <ele>742</ele>
        <time>2015-03-27T14:08:28Z</time>
      </trkpt>
      <trkpt lat="46.61867" lon="5.84893">
        <ele>742</ele>
        <time>2015-03-27T14:08:46Z</time>
      </trkpt>
      <trkpt lat="46.61871" lon="5.84887">
        <ele>742</ele>
        <time>2015-03-27T14:09:09Z</time>
      </trkpt>
      <trkpt lat="46.61867" lon="5.84854">
        <ele>739</ele>
        <time>2015-03-27T14:09:58Z</time>
      </trkpt>
      <trkpt lat="46.61865" lon="5.84858">
        <ele>732</ele>
        <time>2015-03-27T14:11:08Z</time>
      </trkpt>
      <trkpt lat="46.61871" lon="5.84857">
        <ele>732</ele>
        <time>2015-03-27T14:12:13Z</time>
      </trkpt>
      <trkpt lat="46.61855" lon="5.84855">
        <ele>732</ele>
        <time>2015-03-27T14:12:19Z</time>
      </trkpt>
      <trkpt lat="46.61861" lon="5.84855">
        <ele>731</ele>
        <time>2015-03-27T14:12:39Z</time>
      </trkpt>
      <trkpt lat="46.6186" lon="5.84841">
        <ele>730</ele>
        <time>2015-03-27T14:12:56Z</time>
      </trkpt>
      <trkpt lat="46.61858" lon="5.84828">
        <ele>727</ele>
        <time>2015-03-27T14:13:01Z</time>
      </trkpt>
      <trkpt lat="46.61863" lon="5.84816">
        <ele>723</ele>
        <time>2015-03-27T14:13:16Z</time>
      </trkpt>
      <trkpt lat="46.61872" lon="5.84811">
        <ele>723</ele>
        <time>2015-03-27T14:13:26Z</time>
      </trkpt>
      <trkpt lat="46.61878" lon="5.84801">
        <ele>724</ele>
        <time>2015-03-27T14:13:37Z</time>
      </trkpt>
      <trkpt lat="46.61882" lon="5.84788">
        <ele>725</ele>
        <time>2015-03-27T14:13:46Z</time>
      </trkpt>
      <trkpt lat="46.61887" lon="5.84734">
        <ele>725</ele>
        <time>2015-03-27T14:14:26Z</time>
      </trkpt>
      <trkpt lat="46.61888" lon="5.84706">
        <ele>724</ele>
        <time>2015-03-27T14:14:44Z</time>
      </trkpt>
      <trkpt lat="46.61883" lon="5.84651">
        <ele>725</ele>
        <time>2015-03-27T14:15:17Z</time>
      </trkpt>
      <trkpt lat="46.61883" lon="5.84625">
        <ele>726</ele>
        <time>2015-03-27T14:15:37Z</time>
      </trkpt>
      <trkpt lat="46.61879" lon="5.84611">
        <ele>726</ele>
        <time>2015-03-27T14:15:47Z</time>
      </trkpt>
      <trkpt lat="46.61883" lon="5.8457">
        <ele>727</ele>
        <time>2015-03-27T14:16:23Z</time>
      </trkpt>
      <trkpt lat="46.61889" lon="5.84559">
        <ele>727</ele>
        <time>2015-03-27T14:16:30Z</time>
      </trkpt>
      <trkpt lat="46.61903" lon="5.84541">
        <ele>728</ele>
        <time>2015-03-27T14:16:47Z</time>
      </trkpt>
      <trkpt lat="46.6191" lon="5.84531">
        <ele>729</ele>
        <time>2015-03-27T14:16:58Z</time>
      </trkpt>
      <trkpt lat="46.61911" lon="5.84517">
        <ele>728</ele>
        <time>2015-03-27T14:17:07Z</time>
      </trkpt>
      <trkpt lat="46.6191" lon="5.84504">
        <ele>727</ele>
        <time>2015-03-27T14:17:17Z</time>
      </trkpt>
      <trkpt lat="46.61911" lon="5.8449">
        <ele>728</ele>
        <time>2015-03-27T14:17:25Z</time>
      </trkpt>
      <trkpt lat="46.6191" lon="5.84476">
        <ele>729</ele>
        <time>2015-03-27T14:17:33Z</time>
      </trkpt>
      <trkpt lat="46.6191" lon="5.84463">
        <ele>729</ele>
        <time>2015-03-27T14:17:42Z</time>
      </trkpt>
      <trkpt lat="46.61916" lon="5.84436">
        <ele>728</ele>
        <time>2015-03-27T14:18:01Z</time>
      </trkpt>
      <trkpt lat="46.6192" lon="5.84423">
        <ele>728</ele>
        <time>2015-03-27T14:18:12Z</time>
      </trkpt>
      <trkpt lat="46.61928" lon="5.84417">
        <ele>728</ele>
        <time>2015-03-27T14:18:20Z</time>
      </trkpt>
      <trkpt lat="46.61937" lon="5.84414">
        <ele>730</ele>
        <time>2015-03-27T14:18:31Z</time>
      </trkpt>
      <trkpt lat="46.61931" lon="5.8441">
        <ele>729</ele>
        <time>2015-03-27T14:19:22Z</time>
      </trkpt>
      <trkpt lat="46.61921" lon="5.84412">
        <ele>727</ele>
        <time>2015-03-27T14:19:33Z</time>
      </trkpt>
      <trkpt lat="46.61917" lon="5.84399">
        <ele>726</ele>
        <time>2015-03-27T14:19:41Z</time>
      </trkpt>
      <trkpt lat="46.61924" lon="5.84374">
        <ele>727</ele>
        <time>2015-03-27T14:20:09Z</time>
      </trkpt>
      <trkpt lat="46.61914" lon="5.84349">
        <ele>727</ele>
        <time>2015-03-27T14:20:26Z</time>
      </trkpt>
      <trkpt lat="46.61912" lon="5.84335">
        <ele>727</ele>
        <time>2015-03-27T14:20:37Z</time>
      </trkpt>
      <trkpt lat="46.61909" lon="5.84307">
        <ele>727</ele>
        <time>2015-03-27T14:20:55Z</time>
      </trkpt>
      <trkpt lat="46.61911" lon="5.84294">
        <ele>726</ele>
        <time>2015-03-27T14:21:05Z</time>
      </trkpt>
      <trkpt lat="46.61908" lon="5.8428">
        <ele>725</ele>
        <time>2015-03-27T14:21:17Z</time>
      </trkpt>
      <trkpt lat="46.61911" lon="5.84266">
        <ele>724</ele>
        <time>2015-03-27T14:21:26Z</time>
      </trkpt>
      <trkpt lat="46.61909" lon="5.84239">
        <ele>726</ele>
        <time>2015-03-27T14:21:44Z</time>
      </trkpt>
      <trkpt lat="46.61896" lon="5.84202">
        <ele>726</ele>
        <time>2015-03-27T14:22:07Z</time>
      </trkpt>
      <trkpt lat="46.6189" lon="5.84192">
        <ele>726</ele>
        <time>2015-03-27T14:22:19Z</time>
      </trkpt>
      <trkpt lat="46.61881" lon="5.84168">
        <ele>726</ele>
        <time>2015-03-27T14:22:37Z</time>
      </trkpt>
      <trkpt lat="46.61876" lon="5.84157">
        <ele>724</ele>
        <time>2015-03-27T14:22:48Z</time>
      </trkpt>
      <trkpt lat="46.61876" lon="5.84144">
        <ele>723</ele>
        <time>2015-03-27T14:22:56Z</time>
      </trkpt>
      <trkpt lat="46.61877" lon="5.8413">
        <ele>724</ele>
        <time>2015-03-27T14:23:06Z</time>
      </trkpt>
      <trkpt lat="46.61893" lon="5.84091">
        <ele>725</ele>
        <time>2015-03-27T14:23:39Z</time>
      </trkpt>
      <trkpt lat="46.61899" lon="5.84078">
        <ele>726</ele>
        <time>2015-03-27T14:23:49Z</time>
      </trkpt>
      <trkpt lat="46.61904" lon="5.84067">
        <ele>726</ele>
        <time>2015-03-27T14:23:59Z</time>
      </trkpt>
      <trkpt lat="46.61904" lon="5.84053">
        <ele>725</ele>
        <time>2015-03-27T14:24:08Z</time>
      </trkpt>
      <trkpt lat="46.61912" lon="5.84046">
        <ele>725</ele>
        <time>2015-03-27T14:24:23Z</time>
      </trkpt>
      <trkpt lat="46.61919" lon="5.84037">
        <ele>725</ele>
        <time>2015-03-27T14:24:33Z</time>
      </trkpt>
      <trkpt lat="46.61924" lon="5.84025">
        <ele>725</ele>
        <time>2015-03-27T14:24:42Z</time>
      </trkpt>
      <trkpt lat="46.61924" lon="5.84011">
        <ele>725</ele>
        <time>2015-03-27T14:25:00Z</time>
      </trkpt>
      <trkpt lat="46.61923" lon="5.83984">
        <ele>722</ele>
        <time>2015-03-27T14:25:21Z</time>
      </trkpt>
      <trkpt lat="46.6193" lon="5.8397">
        <ele>722</ele>
        <time>2015-03-27T14:25:40Z</time>
      </trkpt>
      <trkpt lat="46.6194" lon="5.83969">
        <ele>720</ele>
        <time>2015-03-27T14:26:50Z</time>
      </trkpt>
      <trkpt lat="46.6197" lon="5.8398">
        <ele>721</ele>
        <time>2015-03-27T14:27:25Z</time>
      </trkpt>
      <trkpt lat="46.61976" lon="5.8397">
        <ele>721</ele>
        <time>2015-03-27T14:27:34Z</time>
      </trkpt>
      <trkpt lat="46.61982" lon="5.83944">
        <ele>721</ele>
        <time>2015-03-27T14:27:54Z</time>
      </trkpt>
      <trkpt lat="46.61985" lon="5.83918">
        <ele>724</ele>
        <time>2015-03-27T14:28:28Z</time>
      </trkpt>
      <trkpt lat="46.61996" lon="5.83921">
        <ele>723</ele>
        <time>2015-03-27T14:28:52Z</time>
      </trkpt>
      <trkpt lat="46.62004" lon="5.83913">
        <ele>721</ele>
        <time>2015-03-27T14:29:02Z</time>
      </trkpt>
      <trkpt lat="46.62003" lon="5.839">
        <ele>721</ele>
        <time>2015-03-27T14:29:14Z</time>
      </trkpt>
      <trkpt lat="46.62004" lon="5.83886">
        <ele>719</ele>
        <time>2015-03-27T14:29:24Z</time>
      </trkpt>
      <trkpt lat="46.61999" lon="5.83875">
        <ele>719</ele>
        <time>2015-03-27T14:29:31Z</time>
      </trkpt>
      <trkpt lat="46.61979" lon="5.83827">
        <ele>722</ele>
        <time>2015-03-27T14:30:02Z</time>
      </trkpt>
      <trkpt lat="46.61974" lon="5.83814">
        <ele>724</ele>
        <time>2015-03-27T14:30:14Z</time>
      </trkpt>
      <trkpt lat="46.61973" lon="5.83807">
        <ele>724</ele>
        <time>2015-03-27T14:30:20Z</time>
      </trkpt>
      <trkpt lat="46.61975" lon="5.83801">
        <ele>723</ele>
        <time>2015-03-27T14:30:26Z</time>
      </trkpt>
      <trkpt lat="46.61972" lon="5.83787">
        <ele>722</ele>
        <time>2015-03-27T14:30:38Z</time>
      </trkpt>
      <trkpt lat="46.61974" lon="5.8378">
        <ele>722</ele>
        <time>2015-03-27T14:30:43Z</time>
      </trkpt>
      <trkpt lat="46.61975" lon="5.83774">
        <ele>721</ele>
        <time>2015-03-27T14:30:46Z</time>
      </trkpt>
      <trkpt lat="46.61979" lon="5.83769">
        <ele>720</ele>
        <time>2015-03-27T14:30:53Z</time>
      </trkpt>
      <trkpt lat="46.61979" lon="5.8376">
        <ele>720</ele>
        <time>2015-03-27T14:30:57Z</time>
      </trkpt>
      <trkpt lat="46.61977" lon="5.83724">
        <ele>714</ele>
        <time>2015-03-27T14:31:22Z</time>
      </trkpt>
      <trkpt lat="46.61982" lon="5.83696">
        <ele>713</ele>
        <time>2015-03-27T14:31:42Z</time>
      </trkpt>
      <trkpt lat="46.61981" lon="5.83689">
        <ele>713</ele>
        <time>2015-03-27T14:31:46Z</time>
      </trkpt>
      <trkpt lat="46.61981" lon="5.83663">
        <ele>713</ele>
        <time>2015-03-27T14:32:00Z</time>
      </trkpt>
      <trkpt lat="46.61977" lon="5.83635">
        <ele>712</ele>
        <time>2015-03-27T14:32:10Z</time>
      </trkpt>
      <trkpt lat="46.61979" lon="5.83621">
        <ele>711</ele>
        <time>2015-03-27T14:32:21Z</time>
      </trkpt>
      <trkpt lat="46.61985" lon="5.83611">
        <ele>711</ele>
        <time>2015-03-27T14:32:28Z</time>
      </trkpt>
      <trkpt lat="46.61985" lon="5.83596">
        <ele>711</ele>
        <time>2015-03-27T14:32:36Z</time>
      </trkpt>
      <trkpt lat="46.61987" lon="5.83582">
        <ele>710</ele>
        <time>2015-03-27T14:32:45Z</time>
      </trkpt>
      <trkpt lat="46.61989" lon="5.83569">
        <ele>709</ele>
        <time>2015-03-27T14:32:54Z</time>
      </trkpt>
      <trkpt lat="46.6199" lon="5.83555">
        <ele>708</ele>
        <time>2015-03-27T14:33:03Z</time>
      </trkpt>
      <trkpt lat="46.61994" lon="5.83549">
        <ele>707</ele>
        <time>2015-03-27T14:33:25Z</time>
      </trkpt>
      <trkpt lat="46.61997" lon="5.83536">
        <ele>707</ele>
        <time>2015-03-27T14:34:19Z</time>
      </trkpt>
      <trkpt lat="46.62001" lon="5.83524">
        <ele>710</ele>
        <time>2015-03-27T14:34:37Z</time>
      </trkpt>
      <trkpt lat="46.62005" lon="5.83511">
        <ele>711</ele>
        <time>2015-03-27T14:35:16Z</time>
      </trkpt>
      <trkpt lat="46.62012" lon="5.83502">
        <ele>712</ele>
        <time>2015-03-27T14:35:25Z</time>
      </trkpt>
      <trkpt lat="46.62017" lon="5.83491">
        <ele>712</ele>
        <time>2015-03-27T14:35:35Z</time>
      </trkpt>
      <trkpt lat="46.62018" lon="5.83478">
        <ele>712</ele>
        <time>2015-03-27T14:35:43Z</time>
      </trkpt>
      <trkpt lat="46.62044" lon="5.83435">
        <ele>713</ele>
        <time>2015-03-27T14:36:15Z</time>
      </trkpt>
      <trkpt lat="46.62075" lon="5.83399">
        <ele>714</ele>
        <time>2015-03-27T14:36:47Z</time>
      </trkpt>
      <trkpt lat="46.62076" lon="5.83387">
        <ele>714</ele>
        <time>2015-03-27T14:37:24Z</time>
      </trkpt>
      <trkpt lat="46.62079" lon="5.83387">
        <ele>716</ele>
        <time>2015-03-27T14:38:22Z</time>
      </trkpt>
      <trkpt lat="46.62083" lon="5.83386">
        <ele>715</ele>
        <time>2015-03-27T14:38:47Z</time>
      </trkpt>
      <trkpt lat="46.6209" lon="5.83376">
        <ele>715</ele>
        <time>2015-03-27T14:39:02Z</time>
      </trkpt>
      <trkpt lat="46.62101" lon="5.83362">
        <ele>715</ele>
        <time>2015-03-27T14:39:16Z</time>
      </trkpt>
      <trkpt lat="46.62108" lon="5.8335">
        <ele>714</ele>
        <time>2015-03-27T14:39:26Z</time>
      </trkpt>
      <trkpt lat="46.62126" lon="5.83327">
        <ele>714</ele>
        <time>2015-03-27T14:39:45Z</time>
      </trkpt>
      <trkpt lat="46.62134" lon="5.83318">
        <ele>713</ele>
        <time>2015-03-27T14:39:53Z</time>
      </trkpt>
      <trkpt lat="46.62176" lon="5.83288">
        <ele>713</ele>
        <time>2015-03-27T14:40:27Z</time>
      </trkpt>
      <trkpt lat="46.62198" lon="5.8326">
        <ele>711</ele>
        <time>2015-03-27T14:40:52Z</time>
      </trkpt>
      <trkpt lat="46.62201" lon="5.83246">
        <ele>711</ele>
        <time>2015-03-27T14:41:00Z</time>
      </trkpt>
      <trkpt lat="46.62202" lon="5.83217">
        <ele>709</ele>
        <time>2015-03-27T14:41:13Z</time>
      </trkpt>
      <trkpt lat="46.62194" lon="5.83162">
        <ele>705</ele>
        <time>2015-03-27T14:41:44Z</time>
      </trkpt>
      <trkpt lat="46.62194" lon="5.83155">
        <ele>705</ele>
        <time>2015-03-27T14:41:48Z</time>
      </trkpt>
      <trkpt lat="46.62192" lon="5.83148">
        <ele>704</ele>
        <time>2015-03-27T14:41:52Z</time>
      </trkpt>
      <trkpt lat="46.62191" lon="5.83145">
        <ele>704</ele>
        <time>2015-03-27T14:41:57Z</time>
      </trkpt>
      <trkpt lat="46.62189" lon="5.83129">
        <ele>703</ele>
        <time>2015-03-27T14:42:03Z</time>
      </trkpt>
      <trkpt lat="46.62191" lon="5.83126">
        <ele>703</ele>
        <time>2015-03-27T14:42:14Z</time>
      </trkpt>
      <trkpt lat="46.62192" lon="5.83118">
        <ele>702</ele>
        <time>2015-03-27T14:42:21Z</time>
      </trkpt>
      <trkpt lat="46.62191" lon="5.83111">
        <ele>702</ele>
        <time>2015-03-27T14:42:25Z</time>
      </trkpt>
      <trkpt lat="46.62195" lon="5.83099">
        <ele>702</ele>
        <time>2015-03-27T14:42:34Z</time>
      </trkpt>
      <trkpt lat="46.62221" lon="5.83041">
        <ele>699</ele>
        <time>2015-03-27T14:43:07Z</time>
      </trkpt>
      <trkpt lat="46.62228" lon="5.83031">
        <ele>698</ele>
        <time>2015-03-27T14:43:15Z</time>
      </trkpt>
      <trkpt lat="46.62234" lon="5.8302">
        <ele>698</ele>
        <time>2015-03-27T14:43:22Z</time>
      </trkpt>
      <trkpt lat="46.62262" lon="5.82981">
        <ele>694</ele>
        <time>2015-03-27T14:43:52Z</time>
      </trkpt>
      <trkpt lat="46.62268" lon="5.8297">
        <ele>694</ele>
        <time>2015-03-27T14:43:59Z</time>
      </trkpt>
      <trkpt lat="46.62275" lon="5.8296">
        <ele>693</ele>
        <time>2015-03-27T14:44:09Z</time>
      </trkpt>
      <trkpt lat="46.62293" lon="5.82953">
        <ele>691</ele>
        <time>2015-03-27T14:44:25Z</time>
      </trkpt>
      <trkpt lat="46.62305" lon="5.82942">
        <ele>690</ele>
        <time>2015-03-27T14:44:43Z</time>
      </trkpt>
      <trkpt lat="46.62314" lon="5.82939">
        <ele>689</ele>
        <time>2015-03-27T14:45:23Z</time>
      </trkpt>
      <trkpt lat="46.62325" lon="5.82931">
        <ele>686</ele>
        <time>2015-03-27T14:45:41Z</time>
      </trkpt>
      <trkpt lat="46.62335" lon="5.82897">
        <ele>676</ele>
        <time>2015-03-27T14:46:22Z</time>
      </trkpt>
      <trkpt lat="46.62339" lon="5.82886">
        <ele>675</ele>
        <time>2015-03-27T14:46:34Z</time>
      </trkpt>
      <trkpt lat="46.62348" lon="5.82884">
        <ele>674</ele>
        <time>2015-03-27T14:46:43Z</time>
      </trkpt>
      <trkpt lat="46.62358" lon="5.82887">
        <ele>673</ele>
        <time>2015-03-27T14:46:52Z</time>
      </trkpt>
      <trkpt lat="46.62365" lon="5.82895">
        <ele>672</ele>
        <time>2015-03-27T14:46:59Z</time>
      </trkpt>
      <trkpt lat="46.62418" lon="5.82927">
        <ele>671</ele>
        <time>2015-03-27T14:47:35Z</time>
      </trkpt>
      <trkpt lat="46.62432" lon="5.82934">
        <ele>671</ele>
        <time>2015-03-27T14:47:45Z</time>
      </trkpt>
      <trkpt lat="46.62451" lon="5.82946">
        <ele>667</ele>
        <time>2015-03-27T14:48:18Z</time>
      </trkpt>
      <trkpt lat="46.6246" lon="5.82948">
        <ele>666</ele>
        <time>2015-03-27T14:48:25Z</time>
      </trkpt>
      <trkpt lat="46.62468" lon="5.82954">
        <ele>666</ele>
        <time>2015-03-27T14:48:32Z</time>
      </trkpt>
      <trkpt lat="46.62496" lon="5.82961">
        <ele>665</ele>
        <time>2015-03-27T14:48:55Z</time>
      </trkpt>
      <trkpt lat="46.62515" lon="5.82955">
        <ele>664</ele>
        <time>2015-03-27T14:49:13Z</time>
      </trkpt>
      <trkpt lat="46.62551" lon="5.82936">
        <ele>659</ele>
        <time>2015-03-27T14:49:44Z</time>
      </trkpt>
      <trkpt lat="46.6257" lon="5.82927">
        <ele>659</ele>
        <time>2015-03-27T14:49:58Z</time>
      </trkpt>
      <trkpt lat="46.62592" lon="5.82899">
        <ele>663</ele>
        <time>2015-03-27T14:50:24Z</time>
      </trkpt>
      <trkpt lat="46.62619" lon="5.82863">
        <ele>664</ele>
        <time>2015-03-27T14:50:51Z</time>
      </trkpt>
      <trkpt lat="46.62626" lon="5.82854">
        <ele>664</ele>
        <time>2015-03-27T14:50:59Z</time>
      </trkpt>
      <trkpt lat="46.62636" lon="5.82839">
        <ele>662</ele>
        <time>2015-03-27T14:51:14Z</time>
      </trkpt>
    </trkseg>
  </trk>
</gpx>